Observation data for Crowell on 01/19/2019      Previous  Date  Next       Current Mesonet Observations  Soil Data  Daily Summary Page  Observations in Plain Language
KCR1 190600Z 34021KT 05/M01 A2996 RMK A01 T00461010  RH  067%=      5-min Rain = 0
KCR1 190601Z 35020G26KT 05/M01 A2996 RMK A01 T00461010  RH  067%=      5-min Rain = 0
KCR1 190602Z 35024G31KT 05/M01 A2996 RMK A01 T00461010  RH  067%=      5-min Rain = 0
KCR1 190603Z 34026G33KT 05/M01 A2996 RMK A01 T00461011  RH  067%=      5-min Rain = 0
KCR1 190604Z 35026KT 05/M01 A2996 RMK A01 T00461012  RH  066%=      5-min Rain = 0
KCR1 190605Z 34026G33KT 05/M01 A2996 RMK A01 T00451012  RH  066%=      5-min Rain = 0
KCR1 190606Z 34026G32KT 05/M01 A2996 RMK A01 T00451013  RH  066%=      5-min Rain = 0
KCR1 190607Z 35021KT 05/M01 A2996 RMK A01 T00451012  RH  066%=      5-min Rain = 0
KCR1 190608Z 34025KT 05/M01 A2996 RMK A01 T00451012  RH  066%=      5-min Rain = 0
KCR1 190609Z 34026G32KT 05/M01 A2996 RMK A01 T00451012  RH  066%=      5-min Rain = 0
KCR1 190610Z 35025G32KT 05/M01 A2996 RMK A01 T00451013  RH  066%=      5-min Rain = 0
KCR1 190611Z 35023G28KT 05/M01 A2996 RMK A01 T00451012  RH  066%=      5-min Rain = 0
KCR1 190612Z 35025G30KT 05/M01 A2996 RMK A01 T00451013  RH  066%=      5-min Rain = 0
KCR1 190613Z 34029G36KT 05/M01 A2996 RMK A01 T00451013  RH  066%=      5-min Rain = 0
KCR1 190614Z 35027KT 05/M01 A2996 RMK A01 T00451013  RH  066%=      5-min Rain = 0
KCR1 190615Z 35025KT 05/M01 A2996 RMK A01 T00451013  RH  066%=      5-min Rain = 0
KCR1 190616Z 35021G27KT 05/M01 A2997 RMK A01 T00451012  RH  067%=      5-min Rain = 0
KCR1 190617Z 34023KT 05/M01 A2997 RMK A01 T00451012  RH  067%=      5-min Rain = 0
KCR1 190618Z 35020KT 04/M01 A2997 RMK A01 T00441012  RH  067%=      5-min Rain = 0
KCR1 190619Z 35023KT 04/M01 A2997 RMK A01 T00441012  RH  067%=      5-min Rain = 0
KCR1 190620Z 34028G33KT 04/M01 A2997 RMK A01 T00441013  RH  066%=      5-min Rain = 0
KCR1 190621Z 34024G29KT 04/M01 A2997 RMK A01 T00441014  RH  066%=      5-min Rain = 0
KCR1 190622Z 35024KT 04/M01 A2997 RMK A01 T00441013  RH  067%=      5-min Rain = 0
KCR1 190623Z 35025KT 04/M01 A2997 RMK A01 T00441013  RH  066%=      5-min Rain = 0
KCR1 190624Z 35023G28KT 04/M01 A2997 RMK A01 T00441014  RH  066%=      5-min Rain = 0
KCR1 190625Z 34025KT 04/M01 A2997 RMK A01 T00431014  RH  066%=      5-min Rain = 0
KCR1 190626Z 34025KT 04/M01 A2997 RMK A01 T00431014  RH  067%=      5-min Rain = 0
KCR1 190627Z 35024KT 04/M01 A2997 RMK A01 T00431014  RH  067%=      5-min Rain = 0
KCR1 190628Z 35025KT 04/M01 A2997 RMK A01 T00431013  RH  067%=      5-min Rain = 0
KCR1 190629Z 35024KT 04/M01 A2997 RMK A01 T00421014  RH  067%=      5-min Rain = 0
KCR1 190630Z 34021G26KT 04/M01 A2998 RMK A01 T00421012  RH  068%=      5-min Rain = 0
KCR1 190631Z 34020G26KT 04/M01 A2998 RMK A01 T00421012  RH  068%=      5-min Rain = 0
KCR1 190632Z 34023KT 04/M01 A2998 RMK A01 T00411012  RH  068%=      5-min Rain = 0
KCR1 190633Z 34021G28KT 04/M01 A2998 RMK A01 T00411012  RH  069%=      5-min Rain = 0
KCR1 190634Z 34023G29KT 04/M01 A2998 RMK A01 T00401012  RH  069%=      5-min Rain = 0
KCR1 190635Z 34024G29KT 04/M01 A2998 RMK A01 T00391011  RH  070%=      5-min Rain = 0
KCR1 190636Z 34027G32KT 04/M01 A2998 RMK A01 T00381011  RH  070%=      5-min Rain = 0
KCR1 190637Z 35025G31KT 04/M01 A2998 RMK A01 T00371011  RH  071%=      5-min Rain = 0
KCR1 190638Z 35028G34KT 04/M01 A2998 RMK A01 T00371009  RH  072%=      5-min Rain = 0
KCR1 190639Z 35024G29KT 04/M01 A2998 RMK A01 T00361009  RH  073%=      5-min Rain = 0
KCR1 190640Z 35023KT 04/M01 A2998 RMK A01 T00351007  RH  074%=      5-min Rain = 0
KCR1 190641Z 35024KT 04/M01 A2998 RMK A01 T00351007  RH  074%=      5-min Rain = 0
KCR1 190642Z 35022KT 03/M01 A2998 RMK A01 T00341007  RH  075%=      5-min Rain = 0
KCR1 190643Z 35022G28KT 03/M01 A2998 RMK A01 T00341006  RH  075%=      5-min Rain = 0
KCR1 190644Z 35019KT 03/M01 A2998 RMK A01 T00341006  RH  075%=      5-min Rain = 0
KCR1 190645Z 35018G25KT 03/M01 A2998 RMK A01 T00341005  RH  075%=      5-min Rain = 0
KCR1 190646Z 35023KT 03/M01 A2998 RMK A01 T00341006  RH  075%=      5-min Rain = 0
KCR1 190647Z 34021KT 03/M01 A2998 RMK A01 T00341006  RH  075%=      5-min Rain = 0
KCR1 190648Z 34020G26KT 03/M01 A2998 RMK A01 T00341007  RH  074%=      5-min Rain = 0
KCR1 190649Z 34024G29KT 04/M01 A2998 RMK A01 T00351007  RH  074%=      5-min Rain = 0
KCR1 190650Z 34026G31KT 04/M01 A2998 RMK A01 T00351009  RH  073%=      5-min Rain = 0
KCR1 190651Z 34024KT 04/M01 A2998 RMK A01 T00351010  RH  073%=      5-min Rain = 0
KCR1 190652Z 34022KT 04/M01 A2999 RMK A01 T00351010  RH  073%=      5-min Rain = 0
KCR1 190653Z 34022G27KT 04/M01 A2999 RMK A01 T00351010  RH  073%=      5-min Rain = 0
KCR1 190654Z 34024G30KT 04/M01 A2999 RMK A01 T00351011  RH  072%=      5-min Rain = 0
KCR1 190655Z 34022G27KT 04/M01 A2999 RMK A01 T00351011  RH  072%=      5-min Rain = 0
KCR1 190656Z 35020G25KT 04/M01 A2999 RMK A01 T00351011  RH  072%=      5-min Rain = 0
KCR1 190657Z 35025KT 04/M01 A2999 RMK A01 T00351011  RH  072%=      5-min Rain = 0
KCR1 190658Z 35024G29KT 04/M01 A2999 RMK A01 T00351012  RH  071%=      5-min Rain = 0
KCR1 190659Z 35024KT 04/M01 A2999 RMK A01 T00351012  RH  071%=      5-min Rain = 0
KCR1 190700Z 34023G28KT 04/M01 A2999 RMK A01 T00351012  RH  072%=      5-min Rain = 0
KCR1 190701Z 35022G27KT 03/M01 A30 RMK A01 T00341013  RH  071%=      5-min Rain = 0
KCR1 190702Z 34026G32KT 03/M01 A2999 RMK A01 T00341012  RH  072%=      5-min Rain = 0
KCR1 190703Z 34024KT 03/M01 A30 RMK A01 T00341012  RH  072%=      5-min Rain = 0
KCR1 190704Z 34024G29KT 03/M01 A30 RMK A01 T00331013  RH  072%=      5-min Rain = 0
KCR1 190705Z 34027KT 03/M01 A30 RMK A01 T00321013  RH  072%=      5-min Rain = 0
KCR1 190706Z 34024G30KT 03/M01 A30 RMK A01 T00321012  RH  073%=      5-min Rain = 0
KCR1 190707Z 34023KT 03/M01 A30 RMK A01 T00311011  RH  074%=      5-min Rain = 0
KCR1 190708Z 34024G29KT 03/M01 A30 RMK A01 T00311011  RH  074%=      5-min Rain = 0
KCR1 190709Z 34024KT 03/M01 A30 RMK A01 T00301011  RH  074%=      5-min Rain = 0
KCR1 190710Z 34026G32KT 03/M01 A30 RMK A01 T00301011  RH  075%=      5-min Rain = 0
KCR1 190711Z 34026KT 03/M01 A30 RMK A01 T00291011  RH  075%=      5-min Rain = 0
KCR1 190712Z 35024KT 03/M01 A3001 RMK A01 T00291010  RH  076%=      5-min Rain = 0
KCR1 190713Z 35029G34KT 03/M01 A3001 RMK A01 T00281009  RH  077%=      5-min Rain = 0
KCR1 190714Z 35029KT 03/M01 A30 RMK A01 T00271007  RH  078%=      5-min Rain = 0
KCR1 190715Z 35028KT 03/M01 A3001 RMK A01 T00251007  RH  080%=      5-min Rain = 0
KCR1 190716Z 35026KT 02/M01 A3001 RMK A01 T00241005  RH  081%=      5-min Rain = 0
KCR1 190717Z 35023G29KT 02/M00 A3001 RMK A01 T00231004  RH  082%=      5-min Rain = 0
KCR1 190718Z 34020KT 02/M00 A3001 RMK A01 T00221003  RH  083%=      5-min Rain = 0
KCR1 190719Z 34022G27KT 02/M00 A3001 RMK A01 T00221002  RH  084%=      5-min Rain = 0
KCR1 190720Z 34022KT 02/M00 A3001 RMK A01 T00211002  RH  085%=      5-min Rain = 0
KCR1 190721Z 35020KT 02/M00 A3001 RMK A01 T00191001  RH  086%=      5-min Rain = 0
KCR1 190722Z 35020KT 02/00 A3001 RMK A01 T001900-0  RH  087%=      5-min Rain = 0
KCR1 190723Z 34019KT 02/00 A3001 RMK A01 T00180000  RH  088%=      5-min Rain = 0
KCR1 190724Z 34018KT 02/00 A3001 RMK A01 T00180001  RH  089%=      5-min Rain = 0
KCR1 190725Z 34017KT 02/00 A3001 RMK A01 T00170001  RH  089%=      5-min Rain = 0
KCR1 190726Z 34017G22KT 02/00 A3002 RMK A01 T00160002  RH  090%=      5-min Rain = 0
KCR1 190727Z 34019KT 02/00 A3002 RMK A01 T00160002  RH  091%=      5-min Rain = 0
KCR1 190728Z 34017KT 02/00 A3002 RMK A01 T00150002  RH  091%=      5-min Rain = 0
KCR1 190729Z 34018KT 01/00 A3002 RMK A01 T00140002  RH  092%=      5-min Rain = 0
KCR1 190730Z 34016KT 01/00 A3002 RMK A01 T00140002  RH  092%=      5-min Rain = 0
KCR1 190731Z 34016KT 01/00 A3002 RMK A01 T00130002  RH  092%=      5-min Rain = 0
KCR1 190732Z 34017KT 01/00 A3002 RMK A01 T00130002  RH  093%=      5-min Rain = 0
KCR1 190733Z 34015KT 01/00 A3002 RMK A01 T00130002  RH  093%=      5-min Rain = 0
KCR1 190734Z 34016KT 01/00 A3002 RMK A01 T00120002  RH  093%=      5-min Rain = 0
KCR1 190735Z 34016KT 01/00 A3002 RMK A01 T00130002  RH  093%=      5-min Rain = 0
KCR1 190736Z 34014KT 01/00 A3002 RMK A01 T00140003  RH  092%=      5-min Rain = 0
KCR1 190737Z 34012KT 01/00 A3002 RMK A01 T00140003  RH  092%=      5-min Rain = 0
KCR1 190738Z 34015G20KT 01/00 A3002 RMK A01 T00140003  RH  092%=      5-min Rain = 0
KCR1 190739Z 34017KT 02/00 A3002 RMK A01 T00150003  RH  091%=      5-min Rain = 0
KCR1 190740Z 33018G24KT 02/00 A3002 RMK A01 T00160002  RH  090%=      5-min Rain = 0
KCR1 190741Z 34021G28KT 02/M00 A3002 RMK A01 T00171001  RH  088%=      5-min Rain = 0
KCR1 190742Z 34022KT 02/M00 A3003 RMK A01 T00171002  RH  087%=      5-min Rain = 0
KCR1 190743Z 34021KT 02/M00 A3003 RMK A01 T00171002  RH  087%=      5-min Rain = 0
KCR1 190744Z 34024KT 02/M00 A3003 RMK A01 T00171003  RH  087%=      5-min Rain = 0
KCR1 190745Z 34023G28KT 02/M00 A3003 RMK A01 T00161003  RH  087%=      5-min Rain = 0
KCR1 190746Z 34021KT 01/M00 A3003 RMK A01 T00141004  RH  088%=      5-min Rain = 0
KCR1 190747Z 34018KT 01/M00 A3003 RMK A01 T00131002  RH  089%=      5-min Rain = 0
KCR1 190748Z 34020KT 01/M00 A3003 RMK A01 T00131002  RH  090%=      5-min Rain = 0
KCR1 190749Z 34018G23KT 01/M00 A3003 RMK A01 T00121002  RH  090%=      5-min Rain = 0
KCR1 190750Z 35018KT 01/M00 A3003 RMK A01 T00121002  RH  091%=      5-min Rain = 0
KCR1 190751Z 35019KT 01/M00 A3003 RMK A01 T00121002  RH  090%=      5-min Rain = 0
KCR1 190752Z 35018G23KT 01/M00 A3003 RMK A01 T00121002  RH  090%=      5-min Rain = 0
KCR1 190753Z 35016KT 01/M00 A3003 RMK A01 T00131002  RH  090%=      5-min Rain = 0
KCR1 190754Z 34017KT 01/M00 A3003 RMK A01 T00131002  RH  090%=      5-min Rain = 0
KCR1 190755Z 35019KT 01/M00 A3003 RMK A01 T00131002  RH  089%=      5-min Rain = 0
KCR1 190756Z 34018G23KT 01/M00 A3003 RMK A01 T00141003  RH  088%=      5-min Rain = 0
KCR1 190757Z 35018KT 02/M00 A3003 RMK A01 T00151004  RH  087%=      5-min Rain = 0
KCR1 190758Z 35018KT 02/M00 A3004 RMK A01 T00151004  RH  087%=      5-min Rain = 0
KCR1 190759Z 34017KT 02/M00 A3004 RMK A01 T00161004  RH  086%=      5-min Rain = 0
KCR1 190800Z 35019G24KT 02/M01 A3004 RMK A01 T00161005  RH  086%=      5-min Rain = 0
KCR1 190801Z 35019KT 02/M01 A3004 RMK A01 T00171006  RH  085%=      5-min Rain = 0
KCR1 190802Z 34016KT 02/M01 A3004 RMK A01 T00171006  RH  085%=      5-min Rain = 0
KCR1 190803Z 35015KT 02/M01 A3004 RMK A01 T00171005  RH  085%=      5-min Rain = 0
KCR1 190804Z 35018KT 02/M01 A3004 RMK A01 T00171005  RH  085%=      5-min Rain = 0
KCR1 190805Z 35017KT 02/M01 A3004 RMK A01 T00171006  RH  085%=      5-min Rain = 0
KCR1 190806Z 35017KT 02/M01 A3004 RMK A01 T00171006  RH  084%=      5-min Rain = 0
KCR1 190807Z 35019KT 02/M01 A3004 RMK A01 T00171007  RH  084%=      5-min Rain = 0
KCR1 190808Z 34018KT 02/M01 A3004 RMK A01 T00171008  RH  084%=      5-min Rain = 0
KCR1 190809Z 35017KT 02/M01 A3004 RMK A01 T00171008  RH  084%=      5-min Rain = 0
KCR1 190810Z 35015KT 02/M01 A3004 RMK A01 T00171006  RH  084%=      5-min Rain = 0
KCR1 190811Z 35017KT 02/M01 A3004 RMK A01 T00171006  RH  085%=      5-min Rain = 0
KCR1 190812Z 34017KT 02/M01 A3004 RMK A01 T00171006  RH  084%=      5-min Rain = 0
KCR1 190813Z 35016KT 02/M01 A3005 RMK A01 T00171007  RH  084%=      5-min Rain = 0
KCR1 190814Z 35017KT 02/M01 A3004 RMK A01 T00171008  RH  084%=      5-min Rain = 0
KCR1 190815Z 34015KT 02/M01 A3005 RMK A01 T00171008  RH  084%=      5-min Rain = 0
KCR1 190816Z 34015KT 02/M01 A3005 RMK A01 T00171007  RH  084%=      5-min Rain = 0
KCR1 190817Z 34013KT 02/M01 A3004 RMK A01 T00171007  RH  084%=      5-min Rain = 0
KCR1 190818Z 34012KT 02/M01 A3005 RMK A01 T00171006  RH  085%=      5-min Rain = 0
KCR1 190819Z 34014KT 02/M01 A3005 RMK A01 T00171005  RH  085%=      5-min Rain = 0
KCR1 190820Z 35014G19KT 02/M01 A3004 RMK A01 T00171006  RH  085%=      5-min Rain = 0
KCR1 190821Z 35017KT 02/M01 A3004 RMK A01 T00171008  RH  084%=      5-min Rain = 0
KCR1 190822Z 35015KT 02/M01 A3004 RMK A01 T00171009  RH  083%=      5-min Rain = 0
KCR1 190823Z 35015G20KT 02/M01 A3004 RMK A01 T00181007  RH  083%=      5-min Rain = 0
KCR1 190824Z 34018KT 02/M01 A3004 RMK A01 T00181009  RH  082%=      5-min Rain = 0
KCR1 190825Z 35017KT 02/M01 A3004 RMK A01 T00191011  RH  081%=      5-min Rain = 0
KCR1 190826Z 35016KT 02/M01 A3004 RMK A01 T00201011  RH  080%=      5-min Rain = 0
KCR1 190827Z 35017KT 02/M01 A3004 RMK A01 T00201013  RH  079%=      5-min Rain = 0
KCR1 190828Z 35020G25KT 02/M02 A3004 RMK A01 T00211016  RH  077%=      5-min Rain = 0
KCR1 190829Z 35021G26KT 02/M02 A3004 RMK A01 T00211017  RH  076%=      5-min Rain = 0
KCR1 190830Z 35020KT 02/M02 A3004 RMK A01 T00221018  RH  075%=      5-min Rain = 0
KCR1 190831Z 34022KT 02/M02 A3004 RMK A01 T00221019  RH  074%=      5-min Rain = 0
KCR1 190832Z 35020KT 02/M02 A3004 RMK A01 T00221020  RH  074%=      5-min Rain = 0
KCR1 190833Z 35022KT 02/M02 A3005 RMK A01 T00221020  RH  073%=      5-min Rain = 0
KCR1 190834Z 35019G24KT 02/M02 A3005 RMK A01 T00221020  RH  073%=      5-min Rain = 0
KCR1 190835Z 35021KT 02/M02 A3005 RMK A01 T00221020  RH  073%=      5-min Rain = 0
KCR1 190836Z 34016KT 02/M02 A3005 RMK A01 T00221019  RH  074%=      5-min Rain = 0
KCR1 190837Z 35017G25KT 02/M02 A3005 RMK A01 T00221018  RH  075%=      5-min Rain = 0
KCR1 190838Z 34020G25KT 02/M02 A3005 RMK A01 T00221021  RH  073%=      5-min Rain = 0
KCR1 190839Z 34021KT 02/M02 A3005 RMK A01 T00221021  RH  073%=      5-min Rain = 0
KCR1 190840Z 35018G24KT 02/M02 A3005 RMK A01 T00231022  RH  072%=      5-min Rain = 0
KCR1 190841Z 35018KT 02/M02 A3005 RMK A01 T00221021  RH  073%=      5-min Rain = 0
KCR1 190842Z 35016G21KT 02/M02 A3005 RMK A01 T00221021  RH  073%=      5-min Rain = 0
KCR1 190843Z 35018KT 02/M02 A3005 RMK A01 T00221021  RH  073%=      5-min Rain = 0
KCR1 190844Z 35018KT 02/M02 A3005 RMK A01 T00221021  RH  073%=      5-min Rain = 0
KCR1 190845Z 35016KT 02/M02 A3005 RMK A01 T00221020  RH  074%=      5-min Rain = 0
KCR1 190846Z 35017KT 02/M02 A3005 RMK A01 T00221020  RH  074%=      5-min Rain = 0
KCR1 190847Z 35018KT 02/M02 A3005 RMK A01 T00221020  RH  074%=      5-min Rain = 0
KCR1 190848Z 35016KT 02/M02 A3006 RMK A01 T00221021  RH  073%=      5-min Rain = 0
KCR1 190849Z 35016KT 02/M02 A3006 RMK A01 T00221020  RH  074%=      5-min Rain = 0
KCR1 190850Z 35016KT 02/M02 A3006 RMK A01 T00221020  RH  074%=      5-min Rain = 0
KCR1 190851Z 35016KT 02/M02 A3006 RMK A01 T00221021  RH  073%=      5-min Rain = 0
KCR1 190852Z 34015KT 02/M02 A3006 RMK A01 T00221021  RH  073%=      5-min Rain = 0
KCR1 190853Z 35018KT 02/M02 A3006 RMK A01 T00221022  RH  073%=      5-min Rain = 0
KCR1 190854Z 34017KT 02/M02 A3006 RMK A01 T00231023  RH  072%=      5-min Rain = 0
KCR1 190855Z 35015KT 02/M02 A3006 RMK A01 T00231022  RH  072%=      5-min Rain = 0
KCR1 190856Z 35013KT 02/M02 A3006 RMK A01 T00231021  RH  073%=      5-min Rain = 0
KCR1 190857Z 34015KT 02/M02 A3007 RMK A01 T00231021  RH  073%=      5-min Rain = 0
KCR1 190858Z 34013KT 02/M02 A3007 RMK A01 T00231021  RH  073%=      5-min Rain = 0
KCR1 190859Z 35012KT 02/M02 A3007 RMK A01 T00231021  RH  073%=      5-min Rain = 0
KCR1 190900Z 34014KT 02/M02 A3007 RMK A01 T00231019  RH  074%=      5-min Rain = 0
KCR1 190901Z 34016G22KT 02/M02 A3007 RMK A01 T00231021  RH  073%=      5-min Rain = 0
KCR1 190902Z 34018KT 02/M02 A3007 RMK A01 T00231023  RH  072%=      5-min Rain = 0
KCR1 190903Z 34014KT 02/M02 A3007 RMK A01 T00231022  RH  072%=      5-min Rain = 0
KCR1 190904Z 35015KT 02/M02 A3007 RMK A01 T00241020  RH  073%=      5-min Rain = 0
KCR1 190905Z 35016G21KT 02/M02 A3007 RMK A01 T00241021  RH  072%=      5-min Rain = 0
KCR1 190906Z 35015KT 02/M02 A3007 RMK A01 T00241022  RH  072%=      5-min Rain = 0
KCR1 190907Z 35015KT 02/M02 A3007 RMK A01 T00241021  RH  072%=      5-min Rain = 0
KCR1 190908Z 34015KT 02/M02 A3007 RMK A01 T00241019  RH  073%=      5-min Rain = 0
KCR1 190909Z 34016KT 02/M02 A3007 RMK A01 T00241021  RH  072%=      5-min Rain = 0
KCR1 190910Z 34016KT 02/M02 A3007 RMK A01 T00241022  RH  072%=      5-min Rain = 0
KCR1 190911Z 35015G24KT 02/M02 A3007 RMK A01 T00241021  RH  072%=      5-min Rain = 0
KCR1 190912Z 34017G22KT 03/M02 A3007 RMK A01 T00251022  RH  071%=      5-min Rain = 0
KCR1 190913Z 34015KT 03/M02 A3007 RMK A01 T00251022  RH  071%=      5-min Rain = 0
KCR1 190914Z 34017KT 03/M02 A3007 RMK A01 T00251021  RH  071%=      5-min Rain = 0
KCR1 190915Z 35015KT 03/M02 A3007 RMK A01 T00251022  RH  071%=      5-min Rain = 0
KCR1 190916Z 35016KT 03/M02 A3007 RMK A01 T00251020  RH  072%=      5-min Rain = 0
KCR1 190917Z 34017KT 03/M02 A3007 RMK A01 T00261021  RH  071%=      5-min Rain = 0
KCR1 190918Z 35015KT 03/M02 A3007 RMK A01 T00261021  RH  071%=      5-min Rain = 0
KCR1 190919Z 34015KT 03/M02 A3007 RMK A01 T00261021  RH  071%=      5-min Rain = 0
KCR1 190920Z 35016KT 03/M02 A3007 RMK A01 T00261021  RH  071%=      5-min Rain = 0
KCR1 190921Z 36016KT 03/M02 A3007 RMK A01 T00261020  RH  072%=      5-min Rain = 0
KCR1 190922Z 34013KT 03/M02 A3007 RMK A01 T00261021  RH  071%=      5-min Rain = 0
KCR1 190923Z 35015KT 03/M02 A3007 RMK A01 T00261019  RH  072%=      5-min Rain = 0
KCR1 190924Z 34014KT 03/M02 A3007 RMK A01 T00261021  RH  071%=      5-min Rain = 0
KCR1 190925Z 34014KT 03/M02 A3007 RMK A01 T00261020  RH  071%=      5-min Rain = 0
KCR1 190926Z 34015KT 03/M02 A3007 RMK A01 T00261021  RH  071%=      5-min Rain = 0
KCR1 190927Z 34013KT 03/M02 A3008 RMK A01 T00271021  RH  071%=      5-min Rain = 0
KCR1 190928Z 34013KT 03/M02 A3008 RMK A01 T00271020  RH  071%=      5-min Rain = 0
KCR1 190929Z 34013KT 03/M02 A3008 RMK A01 T00271020  RH  072%=      5-min Rain = 0
KCR1 190930Z 34014KT 03/M02 A3008 RMK A01 T00271019  RH  072%=      5-min Rain = 0
KCR1 190931Z 34015KT 03/M02 A3008 RMK A01 T00271020  RH  071%=      5-min Rain = 0
KCR1 190932Z 34016KT 03/M02 A3008 RMK A01 T00271020  RH  071%=      5-min Rain = 0
KCR1 190933Z 34013KT 03/M02 A3008 RMK A01 T00271020  RH  071%=      5-min Rain = 0
KCR1 190934Z 34013KT 03/M02 A3008 RMK A01 T00271019  RH  071%=      5-min Rain = 0
KCR1 190935Z 34017KT 03/M02 A3008 RMK A01 T00271019  RH  071%=      5-min Rain = 0
KCR1 190936Z 34013G18KT 03/M02 A3008 RMK A01 T00281020  RH  071%=      5-min Rain = 0
KCR1 190937Z 35014G19KT 03/M02 A3008 RMK A01 T00281019  RH  072%=      5-min Rain = 0
KCR1 190938Z 34015KT 03/M02 A3008 RMK A01 T00281019  RH  071%=      5-min Rain = 0
KCR1 190939Z 34012KT 03/M02 A3008 RMK A01 T00281019  RH  071%=      5-min Rain = 0
KCR1 190940Z 34014KT 03/M02 A3008 RMK A01 T00281018  RH  072%=      5-min Rain = 0
KCR1 190941Z 34014KT 03/M02 A3008 RMK A01 T00281019  RH  071%=      5-min Rain = 0
KCR1 190942Z 34014KT 03/M02 A3008 RMK A01 T00281019  RH  071%=      5-min Rain = 0
KCR1 190943Z 34016KT 03/M02 A3008 RMK A01 T00291019  RH  071%=      5-min Rain = 0
KCR1 190944Z 35014KT 03/M02 A3009 RMK A01 T00291020  RH  071%=      5-min Rain = 0
KCR1 190945Z 34013KT 03/M02 A3009 RMK A01 T00281020  RH  070%=      5-min Rain = 0
KCR1 190946Z 34012KT 03/M02 A3009 RMK A01 T00291020  RH  070%=      5-min Rain = 0
KCR1 190947Z 34015G20KT 03/M02 A3009 RMK A01 T00291020  RH  070%=      5-min Rain = 0
KCR1 190948Z 35015KT 03/M02 A3009 RMK A01 T00291019  RH  071%=      5-min Rain = 0
KCR1 190949Z 34018KT 03/M02 A3009 RMK A01 T00291019  RH  071%=      5-min Rain = 0
KCR1 190950Z 34016KT 03/M02 A3009 RMK A01 T00291020  RH  070%=      5-min Rain = 0
KCR1 190951Z 34014KT 03/M02 A3009 RMK A01 T00291020  RH  070%=      5-min Rain = 0
KCR1 190952Z 34015KT 03/M02 A3009 RMK A01 T00301019  RH  071%=      5-min Rain = 0
KCR1 190953Z 35016KT 03/M02 A3009 RMK A01 T00301020  RH  070%=      5-min Rain = 0
KCR1 190954Z 35017KT 03/M02 A3009 RMK A01 T00301020  RH  070%=      5-min Rain = 0
KCR1 190955Z 34017KT 03/M02 A3009 RMK A01 T00301020  RH  070%=      5-min Rain = 0
KCR1 190956Z 35017KT 03/M02 A3009 RMK A01 T00301021  RH  069%=      5-min Rain = 0
KCR1 190957Z 36016KT 03/M02 A3009 RMK A01 T00301021  RH  069%=      5-min Rain = 0
KCR1 190958Z 35015KT 03/M02 A3009 RMK A01 T00301019  RH  070%=      5-min Rain = 0
KCR1 190959Z 35015KT 03/M02 A3009 RMK A01 T00301018  RH  070%=      5-min Rain = 0
KCR1 191000Z 34015KT 03/M02 A3009 RMK A01 T00301018  RH  070%=      5-min Rain = 0
KCR1 191001Z 34018KT 03/M02 A3009 RMK A01 T00301019  RH  070%=      5-min Rain = 0
KCR1 191002Z 35018G25KT 03/M02 A3009 RMK A01 T00301020  RH  070%=      5-min Rain = 0
KCR1 191003Z 34021G27KT 03/M02 A3009 RMK A01 T00301021  RH  069%=      5-min Rain = 0
KCR1 191004Z 34016G21KT 03/M02 A3009 RMK A01 T00311020  RH  069%=      5-min Rain = 0
KCR1 191005Z 35018KT 03/M02 A3009 RMK A01 T00301020  RH  070%=      5-min Rain = 0
KCR1 191006Z 35024G30KT 03/M02 A3009 RMK A01 T00311022  RH  069%=      5-min Rain = 0
KCR1 191007Z 35023G29KT 03/M02 A3009 RMK A01 T00311024  RH  067%=      5-min Rain = 0
KCR1 191008Z 34026KT 03/M03 A3009 RMK A01 T00301025  RH  067%=      5-min Rain = 0
KCR1 191009Z 35022G27KT 03/M02 A3009 RMK A01 T00301024  RH  067%=      5-min Rain = 0
KCR1 191010Z 35023G30KT 03/M02 A3009 RMK A01 T00301024  RH  068%=      5-min Rain = 0
KCR1 191011Z 34022G27KT 03/M02 A3009 RMK A01 T00291024  RH  068%=      5-min Rain = 0
KCR1 191012Z 34021G27KT 03/M03 A3009 RMK A01 T00291025  RH  068%=      5-min Rain = 0
KCR1 191013Z 35020KT 03/M03 A3009 RMK A01 T00291026  RH  067%=      5-min Rain = 0
KCR1 191014Z 35016KT 03/M03 A3009 RMK A01 T00291025  RH  068%=      5-min Rain = 0
KCR1 191015Z 35022G31KT 03/M02 A3009 RMK A01 T00281024  RH  069%=      5-min Rain = 0
KCR1 191016Z 35020KT 03/M03 A3009 RMK A01 T00281025  RH  068%=      5-min Rain = 0
KCR1 191017Z 35021KT 03/M03 A3009 RMK A01 T00281025  RH  068%=      5-min Rain = 0
KCR1 191018Z 35021KT 03/M03 A3009 RMK A01 T00281025  RH  068%=      5-min Rain = 0
KCR1 191019Z 34023G28KT 03/M03 A3009 RMK A01 T00281026  RH  068%=      5-min Rain = 0
KCR1 191020Z 35022KT 03/M03 A3009 RMK A01 T00281028  RH  067%=      5-min Rain = 0
KCR1 191021Z 35022G28KT 03/M03 A301 RMK A01 T00271029  RH  067%=      5-min Rain = 0
KCR1 191022Z 36021KT 03/M03 A301 RMK A01 T00271029  RH  067%=      5-min Rain = 0
KCR1 191023Z 35022G27KT 03/M03 A301 RMK A01 T00271029  RH  067%=      5-min Rain = 0
KCR1 191024Z 36024KT 03/M03 A301 RMK A01 T00261030  RH  066%=      5-min Rain = 0
KCR1 191025Z 00023KT 03/M03 A301 RMK A01 T00261031  RH  066%=      5-min Rain = 0
KCR1 191026Z 36021G27KT 03/M03 A301 RMK A01 T00261031  RH  066%=      5-min Rain = 0
KCR1 191027Z 36019KT 03/M03 A301 RMK A01 T00251031  RH  067%=      5-min Rain = 0
KCR1 191028Z 35019KT 02/M03 A301 RMK A01 T00241031  RH  067%=      5-min Rain = 0
KCR1 191029Z 35017KT 02/M03 A3011 RMK A01 T00241031  RH  067%=      5-min Rain = 0
KCR1 191030Z 35014KT 02/M03 A3011 RMK A01 T00241031  RH  067%=      5-min Rain = 0
KCR1 191031Z 35019KT 02/M03 A3011 RMK A01 T00231030  RH  068%=      5-min Rain = 0
KCR1 191032Z 35022KT 02/M03 A3011 RMK A01 T00241031  RH  067%=      5-min Rain = 0
KCR1 191033Z 35021KT 02/M03 A3011 RMK A01 T00241031  RH  067%=      5-min Rain = 0
KCR1 191034Z 35021KT 02/M03 A3011 RMK A01 T00241031  RH  067%=      5-min Rain = 0
KCR1 191035Z 35017G22KT 03/M03 A3011 RMK A01 T00251030  RH  067%=      5-min Rain = 0
KCR1 191036Z 35020G26KT 02/M03 A3011 RMK A01 T00241030  RH  067%=      5-min Rain = 0
KCR1 191037Z 35025KT 03/M03 A3011 RMK A01 T00251030  RH  067%=      5-min Rain = 0
KCR1 191038Z 35027G32KT 03/M03 A3011 RMK A01 T00251032  RH  066%=      5-min Rain = 0
KCR1 191039Z 35023KT 02/M03 A3011 RMK A01 T00241032  RH  066%=      5-min Rain = 0
KCR1 191040Z 35023G29KT 03/M03 A3011 RMK A01 T00251032  RH  066%=      5-min Rain = 0
KCR1 191041Z 35021KT 02/M03 A3011 RMK A01 T00241032  RH  066%=      5-min Rain = 0
KCR1 191042Z 35023G28KT 02/M03 A3012 RMK A01 T00241032  RH  067%=      5-min Rain = 0
KCR1 191043Z 35025KT 02/M03 A3012 RMK A01 T00241032  RH  066%=      5-min Rain = 0
KCR1 191044Z 34026KT 03/M03 A3012 RMK A01 T00251033  RH  066%=      5-min Rain = 0
KCR1 191045Z 34021KT 03/M03 A3012 RMK A01 T00251033  RH  066%=      5-min Rain = 0
KCR1 191046Z 34021KT 02/M03 A3012 RMK A01 T00241032  RH  066%=      5-min Rain = 0
KCR1 191047Z 34021KT 02/M03 A3012 RMK A01 T00241032  RH  066%=      5-min Rain = 0
KCR1 191048Z 35021KT 02/M03 A3012 RMK A01 T00241033  RH  066%=      5-min Rain = 0
KCR1 191049Z 34022G27KT 02/M03 A3012 RMK A01 T00241033  RH  066%=      5-min Rain = 0
KCR1 191050Z 34024KT 02/M03 A3012 RMK A01 T00241034  RH  066%=      5-min Rain = 0
KCR1 191051Z 34023KT 02/M04 A3012 RMK A01 T00231035  RH  065%=      5-min Rain = 0
KCR1 191052Z 34022KT 02/M04 A3012 RMK A01 T00231036  RH  065%=      5-min Rain = 0
KCR1 191053Z 35022KT 02/M04 A3012 RMK A01 T00231036  RH  065%=      5-min Rain = 0
KCR1 191054Z 34023G28KT 02/M04 A3013 RMK A01 T00221037  RH  065%=      5-min Rain = 0
KCR1 191055Z 34021G26KT 02/M04 A3013 RMK A01 T00221037  RH  065%=      5-min Rain = 0
KCR1 191056Z 33020G25KT 02/M04 A3013 RMK A01 T00211036  RH  066%=      5-min Rain = 0
KCR1 191057Z 34024KT 02/M04 A3013 RMK A01 T00211038  RH  065%=      5-min Rain = 0
KCR1 191058Z 34025G30KT 02/M04 A3013 RMK A01 T00211039  RH  065%=      5-min Rain = 0
KCR1 191059Z 34023KT 02/M04 A3013 RMK A01 T00201040  RH  065%=      5-min Rain = 0
KCR1 191100Z 34024KT 02/M04 A3013 RMK A01 T00201040  RH  065%=      5-min Rain = 0
KCR1 191101Z 34020G25KT 02/M04 A3013 RMK A01 T00201040  RH  065%=      5-min Rain = 0
KCR1 191102Z 34019KT 02/M04 A3013 RMK A01 T00201040  RH  065%=      5-min Rain = 0
KCR1 191103Z 34024G30KT 02/M04 A3013 RMK A01 T00191040  RH  065%=      5-min Rain = 0
KCR1 191104Z 35024G31KT 02/M04 A3013 RMK A01 T00191041  RH  065%=      5-min Rain = 0
KCR1 191105Z 34021G26KT 02/M04 A3013 RMK A01 T00191041  RH  065%=      5-min Rain = 0
KCR1 191106Z 34022KT 02/M04 A3013 RMK A01 T00181041  RH  065%=      5-min Rain = 0
KCR1 191107Z 34023KT 02/M04 A3013 RMK A01 T00181041  RH  065%=      5-min Rain = 0
KCR1 191108Z 34021KT 02/M04 A3013 RMK A01 T00191040  RH  065%=      5-min Rain = 0
KCR1 191109Z 35021G26KT 02/M04 A3014 RMK A01 T00191040  RH  065%=      5-min Rain = 0
KCR1 191110Z 35027G33KT 02/M04 A3014 RMK A01 T00191041  RH  065%=      5-min Rain = 0
KCR1 191111Z 35026KT 02/M04 A3014 RMK A01 T00181042  RH  064%=      5-min Rain = 0
KCR1 191112Z 35025KT 02/M04 A3014 RMK A01 T00181042  RH  064%=      5-min Rain = 0
KCR1 191113Z 34025G31KT 02/M04 A3014 RMK A01 T00181041  RH  065%=      5-min Rain = 0
KCR1 191114Z 35025G31KT 02/M04 A3014 RMK A01 T00181042  RH  064%=      5-min Rain = 0
KCR1 191115Z 34018KT 02/M04 A3014 RMK A01 T00181041  RH  065%=      5-min Rain = 0
KCR1 191116Z 35022KT 02/M04 A3014 RMK A01 T00181041  RH  065%=      5-min Rain = 0
KCR1 191117Z 35020KT 02/M04 A3014 RMK A01 T00181041  RH  065%=      5-min Rain = 0
KCR1 191118Z 35019KT 02/M04 A3014 RMK A01 T00181040  RH  065%=      5-min Rain = 0
KCR1 191119Z 34016KT 02/M04 A3014 RMK A01 T00181039  RH  066%=      5-min Rain = 0
KCR1 191120Z 34016KT 02/M04 A3014 RMK A01 T00171039  RH  066%=      5-min Rain = 0
KCR1 191121Z 35019G24KT 02/M04 A3014 RMK A01 T00171039  RH  066%=      5-min Rain = 0
KCR1 191122Z 33020G26KT 02/M04 A3014 RMK A01 T00181039  RH  066%=      5-min Rain = 0
KCR1 191123Z 34022G27KT 02/M04 A3014 RMK A01 T00171041  RH  066%=      5-min Rain = 0
KCR1 191124Z 34020KT 02/M04 A3014 RMK A01 T00171043  RH  065%=      5-min Rain = 0
KCR1 191125Z 33019G26KT 02/M04 A3014 RMK A01 T00161042  RH  065%=      5-min Rain = 0
KCR1 191126Z 33023G28KT 02/M04 A3014 RMK A01 T00151043  RH  065%=      5-min Rain = 0
KCR1 191127Z 33021KT 02/M04 A3014 RMK A01 T00151044  RH  065%=      5-min Rain = 0
KCR1 191128Z 33018KT 01/M05 A3015 RMK A01 T00141045  RH  065%=      5-min Rain = 0
KCR1 191129Z 33018KT 01/M05 A3015 RMK A01 T00141045  RH  065%=      5-min Rain = 0
KCR1 191130Z 34016KT 01/M04 A3015 RMK A01 T00141044  RH  065%=      5-min Rain = 0
KCR1 191131Z 34015KT 01/M04 A3015 RMK A01 T00131044  RH  066%=      5-min Rain = 0
KCR1 191132Z 34016G21KT 01/M04 A3015 RMK A01 T00131043  RH  066%=      5-min Rain = 0
KCR1 191133Z 34016G22KT 01/M04 A3015 RMK A01 T00131044  RH  066%=      5-min Rain = 0
KCR1 191134Z 34020G26KT 01/M04 A3015 RMK A01 T00121044  RH  066%=      5-min Rain = 0
KCR1 191135Z 34018G23KT 01/M05 A3015 RMK A01 T00121045  RH  066%=      5-min Rain = 0
KCR1 191136Z 33017KT 01/M05 A3015 RMK A01 T00111046  RH  066%=      5-min Rain = 0
KCR1 191137Z 33019KT 01/M05 A3015 RMK A01 T00111046  RH  066%=      5-min Rain = 0
KCR1 191138Z 34021KT 01/M05 A3015 RMK A01 T00111047  RH  065%=      5-min Rain = 0
KCR1 191139Z 33019KT 01/M05 A3015 RMK A01 T00101047  RH  066%=      5-min Rain = 0
KCR1 191140Z 33019KT 01/M05 A3015 RMK A01 T00101047  RH  066%=      5-min Rain = 0
KCR1 191141Z 34017KT 01/M05 A3015 RMK A01 T00091048  RH  066%=      5-min Rain = 0
KCR1 191142Z 34018KT 01/M05 A3015 RMK A01 T00091048  RH  066%=      5-min Rain = 0
KCR1 191143Z 34023KT 01/M05 A3015 RMK A01 T00081048  RH  066%=      5-min Rain = 0
KCR1 191144Z 33021G28KT 01/M05 A3015 RMK A01 T00081050  RH  065%=      5-min Rain = 0
KCR1 191145Z 34019KT 01/M05 A3015 RMK A01 T00081051  RH  065%=      5-min Rain = 0
KCR1 191146Z 34021G28KT 01/M05 A3015 RMK A01 T00071050  RH  065%=      5-min Rain = 0
KCR1 191147Z 34021G26KT 01/M05 A3015 RMK A01 T00071052  RH  065%=      5-min Rain = 0
KCR1 191148Z 34022G30KT 01/M05 A3015 RMK A01 T00071052  RH  065%=      5-min Rain = 0
KCR1 191149Z 36021KT 01/M05 A3015 RMK A01 T00061052  RH  065%=      5-min Rain = 0
KCR1 191150Z 35021KT 01/M05 A3015 RMK A01 T00061052  RH  065%=      5-min Rain = 0
KCR1 191151Z 34018KT 01/M05 A3015 RMK A01 T00061052  RH  065%=      5-min Rain = 0
KCR1 191152Z 34019G24KT 01/M05 A3015 RMK A01 T00061052  RH  065%=      5-min Rain = 0
KCR1 191153Z 34018KT 01/M05 A3015 RMK A01 T00051052  RH  065%=      5-min Rain = 0
KCR1 191154Z 34018KT 01/M05 A3015 RMK A01 T00051052  RH  065%=      5-min Rain = 0
KCR1 191155Z 34020KT 01/M05 A3016 RMK A01 T00051052  RH  066%=      5-min Rain = 0
KCR1 191156Z 34018KT 01/M05 A3016 RMK A01 T00051052  RH  065%=      5-min Rain = 0
KCR1 191157Z 34020KT 01/M05 A3016 RMK A01 T00051052  RH  066%=      5-min Rain = 0
KCR1 191158Z 34019G24KT 01/M05 A3016 RMK A01 T00051052  RH  065%=      5-min Rain = 0
KCR1 191159Z 34018KT 01/M05 A3016 RMK A01 T00051052  RH  066%=      5-min Rain = 0
KCR1 191200Z 34018KT 01/M05 A3016 RMK A01 T00051052  RH  066%=      5-min Rain = 0
KCR1 191201Z 34018KT 01/M05 A3016 RMK A01 T00051052  RH  066%=      5-min Rain = 0
KCR1 191202Z 34017G22KT 00/M05 A3016 RMK A01 T00041052  RH  066%=      5-min Rain = 0
KCR1 191203Z 34015KT 00/M05 A3017 RMK A01 T00041051  RH  066%=      5-min Rain = 0
KCR1 191204Z 34017KT 00/M05 A3017 RMK A01 T00031051  RH  067%=      5-min Rain = 0
KCR1 191205Z 34016KT 00/M05 A3017 RMK A01 T00031051  RH  067%=      5-min Rain = 0
KCR1 191206Z 34016KT 00/M05 A3017 RMK A01 T00031051  RH  067%=      5-min Rain = 0
KCR1 191207Z 34016KT 00/M05 A3017 RMK A01 T00031051  RH  067%=      5-min Rain = 0
KCR1 191208Z 34015G21KT 00/M05 A3017 RMK A01 T00031051  RH  067%=      5-min Rain = 0
KCR1 191209Z 34019KT 00/M05 A3017 RMK A01 T00031051  RH  068%=      5-min Rain = 0
KCR1 191210Z 34015G20KT 00/M05 A3017 RMK A01 T00021051  RH  067%=      5-min Rain = 0
KCR1 191211Z 33015KT 00/M05 A3017 RMK A01 T00021051  RH  067%=      5-min Rain = 0
KCR1 191212Z 33016KT 00/M05 A3018 RMK A01 T00021051  RH  067%=      5-min Rain = 0
KCR1 191213Z 34014G19KT 00/M05 A3018 RMK A01 T00021051  RH  068%=      5-min Rain = 0
KCR1 191214Z 34018KT 00/M05 A3018 RMK A01 T00021051  RH  068%=      5-min Rain = 0
KCR1 191215Z 34018KT 00/M05 A3018 RMK A01 T00021052  RH  067%=      5-min Rain = 0
KCR1 191216Z 34016KT 00/M05 A3018 RMK A01 T00021052  RH  067%=      5-min Rain = 0
KCR1 191217Z 33015KT 00/M05 A3018 RMK A01 T00021052  RH  067%=      5-min Rain = 0
KCR1 191218Z 33013KT 00/M05 A3018 RMK A01 T00021052  RH  067%=      5-min Rain = 0
KCR1 191219Z 34013G22KT 00/M05 A3018 RMK A01 T00021052  RH  067%=      5-min Rain = 0
KCR1 191220Z 34019KT 00/M05 A3018 RMK A01 T00011052  RH  068%=      5-min Rain = 0
KCR1 191221Z 34018KT 00/M05 A3018 RMK A01 T00011053  RH  067%=      5-min Rain = 0
KCR1 191222Z 34016KT 00/M05 A3018 RMK A01 T00021054  RH  066%=      5-min Rain = 0
KCR1 191223Z 34016G23KT 00/M05 A3018 RMK A01 T00021054  RH  066%=      5-min Rain = 0
KCR1 191224Z 34020KT 00/M05 A3018 RMK A01 T00021054  RH  066%=      5-min Rain = 0
KCR1 191225Z 34016G21KT 00/M06 A3018 RMK A01 T00021055  RH  066%=      5-min Rain = 0
KCR1 191226Z 34019KT 00/M06 A3018 RMK A01 T00021055  RH  066%=      5-min Rain = 0
KCR1 191227Z 34018G23KT 00/M06 A3018 RMK A01 T00021056  RH  065%=      5-min Rain = 0
KCR1 191228Z 34017G23KT 00/M06 A3018 RMK A01 T00021055  RH  066%=      5-min Rain = 0
KCR1 191229Z 34020KT 00/M06 A3018 RMK A01 T00021055  RH  066%=      5-min Rain = 0
KCR1 191230Z 34018KT 00/M06 A3018 RMK A01 T00021056  RH  065%=      5-min Rain = 0
KCR1 191231Z 34017KT 00/M06 A3018 RMK A01 T00011056  RH  065%=      5-min Rain = 0
KCR1 191232Z 34014KT 00/M06 A3018 RMK A01 T00011055  RH  066%=      5-min Rain = 0
KCR1 191233Z 34015KT 00/M05 A3018 RMK A01 T00011054  RH  066%=      5-min Rain = 0
KCR1 191234Z 34015G21KT 00/M05 A3018 RMK A01 T00011054  RH  067%=      5-min Rain = 0
KCR1 191235Z 34016KT 00/06 A3018 RMK A01 T00000-55  RH  067%=      5-min Rain = 0
KCR1 191236Z 34016KT 00/06 A3018 RMK A01 T00000-55  RH  067%=      5-min Rain = 0
KCR1 191237Z 34014KT 00/05 A3019 RMK A01 T00000-54  RH  067%=      5-min Rain = 0
KCR1 191238Z 34017KT 00/06 A3019 RMK A01 T00000-55  RH  067%=      5-min Rain = 0
KCR1 191239Z 34014KT 00/06 A3019 RMK A01 T00000-55  RH  067%=      5-min Rain = 0
KCR1 191240Z 34015KT 00/05 A3019 RMK A01 T00-00-54  RH  067%=      5-min Rain = 0
KCR1 191241Z 34017KT 00/06 A3019 RMK A01 T00-00-55  RH  067%=      5-min Rain = 0
KCR1 191242Z 34017KT 00/06 A3019 RMK A01 T00-00-55  RH  067%=      5-min Rain = 0
KCR1 191243Z 34014KT 00/06 A302 RMK A01 T00-00-55  RH  066%=      5-min Rain = 0
KCR1 191244Z 34013KT 00/05 A302 RMK A01 T00000-54  RH  067%=      5-min Rain = 0
KCR1 191245Z 34015KT 00/05 A302 RMK A01 T00-00-54  RH  067%=      5-min Rain = 0
KCR1 191246Z 34016KT M00/M05 A302 RMK A01 T10011054  RH  067%=      5-min Rain = 0
KCR1 191247Z 34014KT M00/M06 A302 RMK A01 T10011055  RH  067%=      5-min Rain = 0
KCR1 191248Z 34014KT M00/M05 A302 RMK A01 T10011054  RH  067%=      5-min Rain = 0
KCR1 191249Z 33014KT M00/M05 A302 RMK A01 T10011054  RH  067%=      5-min Rain = 0
KCR1 191250Z 34013KT M00/M05 A302 RMK A01 T10011054  RH  068%=      5-min Rain = 0
KCR1 191251Z 33012KT M00/M05 A3021 RMK A01 T10011053  RH  068%=      5-min Rain = 0
KCR1 191252Z 33010KT M00/M05 A3021 RMK A01 T10021053  RH  068%=      5-min Rain = 0
KCR1 191253Z 33011KT M00/M05 A3021 RMK A01 T10021053  RH  069%=      5-min Rain = 0
KCR1 191254Z 34012KT M00/M05 A3021 RMK A01 T10031053  RH  069%=      5-min Rain = 0
KCR1 191255Z 33012KT M00/M05 A3021 RMK A01 T10031053  RH  069%=      5-min Rain = 0
KCR1 191256Z 33013KT M00/M05 A3021 RMK A01 T10031053  RH  068%=      5-min Rain = 0
KCR1 191257Z 33013KT M00/M05 A3021 RMK A01 T10021053  RH  068%=      5-min Rain = 0
KCR1 191258Z 33011KT M00/M05 A3021 RMK A01 T10021053  RH  068%=      5-min Rain = 0
KCR1 191259Z 33010KT M00/M05 A3021 RMK A01 T10021053  RH  069%=      5-min Rain = 0
KCR1 191300Z 33010KT M00/M05 A3021 RMK A01 T10031052  RH  070%=      5-min Rain = 0
KCR1 191301Z 33010KT M00/M05 A3021 RMK A01 T10031052  RH  070%=      5-min Rain = 0
KCR1 191302Z 33011KT M00/M05 A3021 RMK A01 T10031052  RH  070%=      5-min Rain = 0
KCR1 191303Z 33011KT M00/M05 A3021 RMK A01 T10031052  RH  070%=      5-min Rain = 0
KCR1 191304Z 33011KT M00/M05 A3021 RMK A01 T10031052  RH  070%=      5-min Rain = 0
KCR1 191305Z 33012KT M00/M05 A3021 RMK A01 T10031051  RH  070%=      5-min Rain = 0
KCR1 191306Z 34013KT M00/M05 A3021 RMK A01 T10031051  RH  070%=      5-min Rain = 0
KCR1 191307Z 33016KT M00/M05 A3021 RMK A01 T10031052  RH  070%=      5-min Rain = 0
KCR1 191308Z 33013KT M00/M05 A3021 RMK A01 T10021052  RH  069%=      5-min Rain = 0
KCR1 191309Z 33014KT M00/M05 A3021 RMK A01 T10021052  RH  069%=      5-min Rain = 0
KCR1 191310Z 34015KT M00/M05 A3021 RMK A01 T10021051  RH  069%=      5-min Rain = 0
KCR1 191311Z 34013KT M00/M05 A3021 RMK A01 T10021052  RH  069%=      5-min Rain = 0
KCR1 191312Z 34013G18KT M00/M05 A3021 RMK A01 T10021051  RH  069%=      5-min Rain = 0
KCR1 191313Z 34013KT M00/M05 A3021 RMK A01 T10021051  RH  070%=      5-min Rain = 0
KCR1 191314Z 34014KT M00/M05 A3021 RMK A01 T10031052  RH  070%=      5-min Rain = 0
KCR1 191315Z 34014KT M00/M05 A3021 RMK A01 T10031052  RH  069%=      5-min Rain = 0
KCR1 191316Z 33015KT M00/M05 A3021 RMK A01 T10031052  RH  069%=      5-min Rain = 0
KCR1 191317Z 34013KT M00/M05 A3021 RMK A01 T10021052  RH  069%=      5-min Rain = 0
KCR1 191318Z 34013KT M00/M05 A3021 RMK A01 T10021052  RH  069%=      5-min Rain = 0
KCR1 191319Z 34015G20KT M00/M05 A3021 RMK A01 T10021052  RH  069%=      5-min Rain = 0
KCR1 191320Z 34015KT M00/M05 A3021 RMK A01 T10021052  RH  069%=      5-min Rain = 0
KCR1 191321Z 34017KT M00/M05 A3022 RMK A01 T10021052  RH  069%=      5-min Rain = 0
KCR1 191322Z 34013G19KT M00/M05 A3022 RMK A01 T10011052  RH  069%=      5-min Rain = 0
KCR1 191323Z 34015KT M00/M05 A3022 RMK A01 T10011052  RH  069%=      5-min Rain = 0
KCR1 191324Z 34014KT M00/M05 A3022 RMK A01 T10011052  RH  069%=      5-min Rain = 0
KCR1 191325Z 34014KT M00/M05 A3022 RMK A01 T10011052  RH  068%=      5-min Rain = 0
KCR1 191326Z 34015KT M00/M05 A3022 RMK A01 T10011052  RH  068%=      5-min Rain = 0
KCR1 191327Z 33013KT M00/M05 A3022 RMK A01 T10011052  RH  068%=      5-min Rain = 0
KCR1 191328Z 33014KT M00/M05 A3022 RMK A01 T10011052  RH  068%=      5-min Rain = 0
KCR1 191329Z 34011KT M00/M05 A3022 RMK A01 T10021052  RH  069%=      5-min Rain = 0
KCR1 191330Z 34013KT M00/M05 A3022 RMK A01 T10021052  RH  069%=      5-min Rain = 0
KCR1 191331Z 33012KT M00/M05 A3022 RMK A01 T10021052  RH  069%=      5-min Rain = 0
KCR1 191332Z 33011KT M00/M05 A3023 RMK A01 T10031052  RH  069%=      5-min Rain = 0
KCR1 191333Z 33013KT M00/M05 A3023 RMK A01 T10031052  RH  069%=      5-min Rain = 0
KCR1 191334Z 33013KT M00/M05 A3023 RMK A01 T10031053  RH  069%=      5-min Rain = 0
KCR1 191335Z 33011KT M00/M05 A3023 RMK A01 T10031053  RH  069%=      5-min Rain = 0
KCR1 191336Z 33012KT M00/M05 A3023 RMK A01 T10031053  RH  069%=      5-min Rain = 0
KCR1 191337Z 33012KT M00/M05 A3023 RMK A01 T10021052  RH  069%=      5-min Rain = 0
KCR1 191338Z 33009KT M00/M05 A3023 RMK A01 T10021052  RH  069%=      5-min Rain = 0
KCR1 191339Z 33011KT M00/M05 A3023 RMK A01 T10031053  RH  069%=      5-min Rain = 0
KCR1 191340Z 33011KT M00/M05 A3023 RMK A01 T10031052  RH  069%=      5-min Rain = 0
KCR1 191341Z 33012G17KT M00/M05 A3023 RMK A01 T10031052  RH  069%=      5-min Rain = 0
KCR1 191342Z 33015G20KT M00/M05 A3023 RMK A01 T10031053  RH  069%=      5-min Rain = 0
KCR1 191343Z 33014KT M00/M05 A3023 RMK A01 T10031054  RH  069%=      5-min Rain = 0
KCR1 191344Z 33013KT M00/M05 A3023 RMK A01 T10031054  RH  069%=      5-min Rain = 0
KCR1 191345Z 34014KT M00/M05 A3023 RMK A01 T10031054  RH  069%=      5-min Rain = 0
KCR1 191346Z 33013KT M00/M05 A3023 RMK A01 T10031054  RH  069%=      5-min Rain = 0
KCR1 191347Z 34013KT M00/M05 A3023 RMK A01 T10031054  RH  069%=      5-min Rain = 0
KCR1 191348Z 34013G18KT M00/M05 A3023 RMK A01 T10031053  RH  069%=      5-min Rain = 0
KCR1 191349Z 34012KT M00/M05 A3023 RMK A01 T10041054  RH  069%=      5-min Rain = 0
KCR1 191350Z 34014KT M00/M06 A3023 RMK A01 T10041055  RH  069%=      5-min Rain = 0
KCR1 191351Z 34014KT M00/M06 A3023 RMK A01 T10041055  RH  068%=      5-min Rain = 0
KCR1 191352Z 35014KT M00/M06 A3023 RMK A01 T10041055  RH  068%=      5-min Rain = 0
KCR1 191353Z 34015KT M00/M06 A3023 RMK A01 T10041056  RH  068%=      5-min Rain = 0
KCR1 191354Z 34017G22KT M00/M06 A3023 RMK A01 T10041057  RH  068%=      5-min Rain = 0
KCR1 191355Z 34019KT M00/M06 A3023 RMK A01 T10041058  RH  067%=      5-min Rain = 0
KCR1 191356Z 34015KT M00/M06 A3023 RMK A01 T10031058  RH  066%=      5-min Rain = 0
KCR1 191357Z 34015KT M00/M06 A3023 RMK A01 T10031058  RH  066%=      5-min Rain = 0
KCR1 191358Z 34019G26KT M00/M06 A3023 RMK A01 T10031058  RH  066%=      5-min Rain = 0
KCR1 191359Z 34018KT M00/M06 A3023 RMK A01 T10031059  RH  066%=      5-min Rain = 0
KCR1 191400Z 34018KT M00/M06 A3023 RMK A01 T10031060  RH  065%=      5-min Rain = 0
KCR1 191401Z 34017KT M00/M06 A3024 RMK A01 T10021059  RH  066%=      5-min Rain = 0
KCR1 191402Z 34019G24KT M00/M06 A3024 RMK A01 T10031059  RH  066%=      5-min Rain = 0
KCR1 191403Z 35020KT M00/M06 A3024 RMK A01 T10021059  RH  065%=      5-min Rain = 0
KCR1 191404Z 34016KT M00/M06 A3024 RMK A01 T10021060  RH  065%=      5-min Rain = 0
KCR1 191405Z 34017G23KT M00/M06 A3024 RMK A01 T10021059  RH  065%=      5-min Rain = 0
KCR1 191406Z 35019KT M00/M06 A3024 RMK A01 T10021060  RH  065%=      5-min Rain = 0
KCR1 191407Z 35019KT M00/M06 A3024 RMK A01 T10021060  RH  065%=      5-min Rain = 0
KCR1 191408Z 35015KT M00/M06 A3024 RMK A01 T10021060  RH  065%=      5-min Rain = 0
KCR1 191409Z 35015G20KT M00/M06 A3024 RMK A01 T10021060  RH  065%=      5-min Rain = 0
KCR1 191410Z 35015KT M00/M06 A3024 RMK A01 T10021060  RH  065%=      5-min Rain = 0
KCR1 191411Z 35016KT M00/M06 A3024 RMK A01 T10021059  RH  065%=      5-min Rain = 0
KCR1 191412Z 35017KT M00/M06 A3024 RMK A01 T10021060  RH  065%=      5-min Rain = 0
KCR1 191413Z 35016KT M00/M06 A3024 RMK A01 T10021060  RH  065%=      5-min Rain = 0
KCR1 191414Z 34016KT M00/M06 A3024 RMK A01 T10021059  RH  065%=      5-min Rain = 0
KCR1 191415Z 35015KT M00/M06 A3024 RMK A01 T10021059  RH  065%=      5-min Rain = 0
KCR1 191416Z 34015KT M00/M06 A3024 RMK A01 T10021059  RH  065%=      5-min Rain = 0
KCR1 191417Z 34015KT M00/M06 A3025 RMK A01 T10021060  RH  065%=      5-min Rain = 0
KCR1 191418Z 34015KT M00/M06 A3025 RMK A01 T10011060  RH  065%=      5-min Rain = 0
KCR1 191419Z 34014KT M00/M06 A3025 RMK A01 T10011060  RH  065%=      5-min Rain = 0
KCR1 191420Z 35013KT M00/M06 A3025 RMK A01 T10011059  RH  065%=      5-min Rain = 0
KCR1 191421Z 34016KT M00/M06 A3025 RMK A01 T10011059  RH  065%=      5-min Rain = 0
KCR1 191422Z 34015KT M00/M06 A3025 RMK A01 T10011059  RH  064%=      5-min Rain = 0
KCR1 191423Z 34014KT 00/06 A3025 RMK A01 T00-00-60  RH  064%=      5-min Rain = 0
KCR1 191424Z 34015KT 00/06 A3025 RMK A01 T00-00-59  RH  065%=      5-min Rain = 0
KCR1 191425Z 34019KT 00/06 A3025 RMK A01 T00000-60  RH  064%=      5-min Rain = 0
KCR1 191426Z 35017KT 00/06 A3025 RMK A01 T00000-61  RH  063%=      5-min Rain = 0
KCR1 191427Z 34015KT 00/M06 A3025 RMK A01 T00011060  RH  063%=      5-min Rain = 0
KCR1 191428Z 34017G23KT 00/M06 A3025 RMK A01 T00011060  RH  064%=      5-min Rain = 0
KCR1 191429Z 34019KT 00/M06 A3025 RMK A01 T00011061  RH  063%=      5-min Rain = 0
KCR1 191430Z 34017KT 00/M06 A3025 RMK A01 T00011061  RH  063%=      5-min Rain = 0
KCR1 191431Z 34017KT 00/M06 A3026 RMK A01 T00011061  RH  063%=      5-min Rain = 0
KCR1 191432Z 35020KT 00/M06 A3026 RMK A01 T00011061  RH  063%=      5-min Rain = 0
KCR1 191433Z 34019KT 00/M06 A3026 RMK A01 T00011061  RH  063%=      5-min Rain = 0
KCR1 191434Z 34018KT 00/M06 A3026 RMK A01 T00021061  RH  063%=      5-min Rain = 0
KCR1 191435Z 34015KT 00/M06 A3026 RMK A01 T00021061  RH  063%=      5-min Rain = 0
KCR1 191436Z 34019G24KT 00/M06 A3026 RMK A01 T00021061  RH  063%=      5-min Rain = 0
KCR1 191437Z 33018KT 00/M06 A3026 RMK A01 T00021062  RH  062%=      5-min Rain = 0
KCR1 191438Z 34016KT 00/M06 A3027 RMK A01 T00021061  RH  063%=      5-min Rain = 0
KCR1 191439Z 35020G25KT 00/M06 A3027 RMK A01 T00021060  RH  063%=      5-min Rain = 0
KCR1 191440Z 34018KT 00/M06 A3027 RMK A01 T00031061  RH  062%=      5-min Rain = 0
KCR1 191441Z 34016KT 00/M06 A3027 RMK A01 T00031061  RH  062%=      5-min Rain = 0
KCR1 191442Z 35016KT 00/M06 A3027 RMK A01 T00031061  RH  062%=      5-min Rain = 0
KCR1 191443Z 34014KT 00/M06 A3027 RMK A01 T00031060  RH  063%=      5-min Rain = 0
KCR1 191444Z 35020KT 00/M06 A3027 RMK A01 T00031060  RH  062%=      5-min Rain = 0
KCR1 191445Z 35019KT 00/M06 A3027 RMK A01 T00031062  RH  062%=      5-min Rain = 0
KCR1 191446Z 34016G21KT 00/M06 A3027 RMK A01 T00031061  RH  062%=      5-min Rain = 0
KCR1 191447Z 34015G20KT 00/M06 A3027 RMK A01 T00041060  RH  062%=      5-min Rain = 0
KCR1 191448Z 34016KT 00/M06 A3027 RMK A01 T00041060  RH  062%=      5-min Rain = 0
KCR1 191449Z 34019G24KT 00/M06 A3027 RMK A01 T00041060  RH  062%=      5-min Rain = 0
KCR1 191450Z 34019KT 00/M06 A3027 RMK A01 T00041063  RH  061%=      5-min Rain = 0
KCR1 191451Z 35019G24KT 00/M06 A3028 RMK A01 T00041063  RH  061%=      5-min Rain = 0
KCR1 191452Z 34020KT 00/M06 A3028 RMK A01 T00031062  RH  061%=      5-min Rain = 0
KCR1 191453Z 34018KT 00/M06 A3028 RMK A01 T00041062  RH  061%=      5-min Rain = 0
KCR1 191454Z 34019KT 00/M06 A3028 RMK A01 T00041062  RH  061%=      5-min Rain = 0
KCR1 191455Z 34022KT 00/M06 A3028 RMK A01 T00041062  RH  061%=      5-min Rain = 0
KCR1 191456Z 34020KT 00/M06 A3028 RMK A01 T00041063  RH  061%=      5-min Rain = 0
KCR1 191457Z 35020KT 00/M06 A3027 RMK A01 T00041063  RH  061%=      5-min Rain = 0
KCR1 191458Z 35019G25KT 00/M06 A3028 RMK A01 T00031063  RH  061%=      5-min Rain = 0
KCR1 191459Z 34021G26KT 00/M06 A3028 RMK A01 T00041063  RH  061%=      5-min Rain = 0
KCR1 191500Z 35018KT 00/M06 A3028 RMK A01 T00041063  RH  061%=      5-min Rain = 0
KCR1 191501Z 35019G25KT 00/M06 A3028 RMK A01 T00041063  RH  061%=      5-min Rain = 0
KCR1 191502Z 35017KT 00/M06 A3028 RMK A01 T00041063  RH  061%=      5-min Rain = 0
KCR1 191503Z 34018G23KT 00/M06 A3028 RMK A01 T00041061  RH  061%=      5-min Rain = 0
KCR1 191504Z 34019KT 01/M06 A3028 RMK A01 T00051061  RH  061%=      5-min Rain = 0
KCR1 191505Z 35019KT 01/M06 A3028 RMK A01 T00051063  RH  060%=      5-min Rain = 0
KCR1 191506Z 34015KT 00/M06 A3028 RMK A01 T00041063  RH  061%=      5-min Rain = 0
KCR1 191507Z 35014KT 01/M06 A3028 RMK A01 T00051060  RH  062%=      5-min Rain = 0
KCR1 191508Z 35017G22KT 01/M06 A3028 RMK A01 T00061060  RH  061%=      5-min Rain = 0
KCR1 191509Z 34014KT 01/M06 A3028 RMK A01 T00061061  RH  061%=      5-min Rain = 0
KCR1 191510Z 36015G20KT 01/M06 A3028 RMK A01 T00071060  RH  061%=      5-min Rain = 0
KCR1 191511Z 35021KT 01/M06 A3028 RMK A01 T00081061  RH  060%=      5-min Rain = 0
KCR1 191512Z 35025G30KT 01/M06 A3028 RMK A01 T00071064  RH  059%=      5-min Rain = 0
KCR1 191513Z 34019KT 01/M06 A3028 RMK A01 T00071064  RH  059%=      5-min Rain = 0
KCR1 191514Z 35019KT 01/M06 A3028 RMK A01 T00071063  RH  060%=      5-min Rain = 0
KCR1 191515Z 34017KT 01/M06 A3028 RMK A01 T00071063  RH  059%=      5-min Rain = 0
KCR1 191516Z 34019G28KT 01/M06 A3029 RMK A01 T00071063  RH  059%=      5-min Rain = 0
KCR1 191517Z 34023KT 01/M07 A3028 RMK A01 T00081065  RH  058%=      5-min Rain = 0
KCR1 191518Z 35018KT 01/M07 A3029 RMK A01 T00081066  RH  058%=      5-min Rain = 0
KCR1 191519Z 35016G23KT 01/M06 A3029 RMK A01 T00081064  RH  059%=      5-min Rain = 0
KCR1 191520Z 35018G28KT 01/M06 A3029 RMK A01 T00091062  RH  059%=      5-min Rain = 0
KCR1 191521Z 35020KT 01/M06 A3029 RMK A01 T00091063  RH  058%=      5-min Rain = 0
KCR1 191522Z 35023G28KT 01/M07 A3029 RMK A01 T00091065  RH  058%=      5-min Rain = 0
KCR1 191523Z 35024G29KT 01/M07 A3029 RMK A01 T00081067  RH  057%=      5-min Rain = 0
KCR1 191524Z 34024G31KT 01/M07 A3029 RMK A01 T00071069  RH  057%=      5-min Rain = 0
KCR1 191525Z 35024G31KT 01/M07 A3029 RMK A01 T00061069  RH  057%=      5-min Rain = 0
KCR1 191526Z 35024G31KT 01/M07 A3029 RMK A01 T00061070  RH  057%=      5-min Rain = 0
KCR1 191527Z 35025KT 01/M07 A3029 RMK A01 T00061069  RH  057%=      5-min Rain = 0
KCR1 191528Z 35022KT 01/M07 A3029 RMK A01 T00071068  RH  057%=      5-min Rain = 0
KCR1 191529Z 35025G30KT 01/M07 A303 RMK A01 T00071068  RH  057%=      5-min Rain = 0
KCR1 191530Z 35021G27KT 01/M07 A303 RMK A01 T00071068  RH  057%=      5-min Rain = 0
KCR1 191531Z 35020KT 01/M07 A303 RMK A01 T00081067  RH  057%=      5-min Rain = 0
KCR1 191532Z 36024KT 01/M07 A303 RMK A01 T00101067  RH  057%=      5-min Rain = 0
KCR1 191533Z 35025G32KT 01/M07 A303 RMK A01 T00101067  RH  056%=      5-min Rain = 0
KCR1 191534Z 35022KT 01/M07 A303 RMK A01 T00091068  RH  056%=      5-min Rain = 0
KCR1 191535Z 35024G29KT 01/M07 A303 RMK A01 T00101068  RH  056%=      5-min Rain = 0
KCR1 191536Z 35024KT 01/M07 A303 RMK A01 T00101068  RH  056%=      5-min Rain = 0
KCR1 191537Z 35024KT 01/M07 A303 RMK A01 T00101069  RH  056%=      5-min Rain = 0
KCR1 191538Z 35025KT 01/M07 A303 RMK A01 T00101068  RH  056%=      5-min Rain = 0
KCR1 191539Z 36024G29KT 01/M07 A303 RMK A01 T00091068  RH  056%=      5-min Rain = 0
KCR1 191540Z 36025G30KT 01/M07 A303 RMK A01 T00091069  RH  056%=      5-min Rain = 0
KCR1 191541Z 35023G29KT 01/M07 A303 RMK A01 T00091070  RH  056%=      5-min Rain = 0
KCR1 191542Z 35020KT 01/M07 A303 RMK A01 T00091068  RH  056%=      5-min Rain = 0
KCR1 191543Z 35019KT 01/M07 A303 RMK A01 T00111066  RH  056%=      5-min Rain = 0
KCR1 191544Z 35019KT 01/M07 A303 RMK A01 T00121065  RH  056%=      5-min Rain = 0
KCR1 191545Z 35020KT 01/M07 A303 RMK A01 T00121067  RH  056%=      5-min Rain = 0
KCR1 191546Z 35019KT 01/M07 A303 RMK A01 T00121066  RH  056%=      5-min Rain = 0
KCR1 191547Z 35020G25KT 01/M07 A303 RMK A01 T00131065  RH  056%=      5-min Rain = 0
KCR1 191548Z 35022G27KT 01/M07 A303 RMK A01 T00141065  RH  056%=      5-min Rain = 0
KCR1 191549Z 35021G26KT 01/M07 A303 RMK A01 T00141066  RH  055%=      5-min Rain = 0
KCR1 191550Z 35021G26KT 01/M07 A3031 RMK A01 T00131067  RH  055%=      5-min Rain = 0
KCR1 191551Z 35019G25KT 01/M07 A3031 RMK A01 T00141065  RH  056%=      5-min Rain = 0
KCR1 191552Z 35022KT 02/M07 A3031 RMK A01 T00151065  RH  055%=      5-min Rain = 0
KCR1 191553Z 35022KT 01/M07 A3031 RMK A01 T00141067  RH  055%=      5-min Rain = 0
KCR1 191554Z 36021KT 01/M07 A3031 RMK A01 T00131067  RH  055%=      5-min Rain = 0
KCR1 191555Z 35023KT 01/M07 A3031 RMK A01 T00131066  RH  056%=      5-min Rain = 0
KCR1 191556Z 35022KT 01/M07 A3031 RMK A01 T00131067  RH  055%=      5-min Rain = 0
KCR1 191557Z 34021KT 01/M07 A3031 RMK A01 T00131067  RH  055%=      5-min Rain = 0
KCR1 191558Z 34021KT 01/M07 A3031 RMK A01 T00131067  RH  055%=      5-min Rain = 0
KCR1 191559Z 34022G27KT 01/M07 A3031 RMK A01 T00141066  RH  055%=      5-min Rain = 0
KCR1 191600Z 35020KT 01/M07 A3031 RMK A01 T00141066  RH  055%=      5-min Rain = 0
KCR1 191601Z 35021KT 02/M07 A3031 RMK A01 T00151065  RH  055%=      5-min Rain = 0
KCR1 191602Z 35023G28KT 02/M07 A3031 RMK A01 T00151067  RH  054%=      5-min Rain = 0
KCR1 191603Z 34018G23KT 02/M07 A3031 RMK A01 T00151066  RH  055%=      5-min Rain = 0
KCR1 191604Z 35018G23KT 02/M06 A3031 RMK A01 T00171063  RH  055%=      5-min Rain = 0
KCR1 191605Z 35019KT 02/M06 A3031 RMK A01 T00181064  RH  055%=      5-min Rain = 0
KCR1 191606Z 35023G28KT 02/M07 A3031 RMK A01 T00181065  RH  054%=      5-min Rain = 0
KCR1 191607Z 35022G30KT 02/M07 A3031 RMK A01 T00171067  RH  054%=      5-min Rain = 0
KCR1 191608Z 34024KT 02/M07 A3031 RMK A01 T00161067  RH  054%=      5-min Rain = 0
KCR1 191609Z 34024KT 02/M07 A3031 RMK A01 T00161069  RH  053%=      5-min Rain = 0
KCR1 191610Z 34019G24KT 02/M07 A3031 RMK A01 T00161067  RH  054%=      5-min Rain = 0
KCR1 191611Z 34021G26KT 02/M07 A3031 RMK A01 T00171066  RH  054%=      5-min Rain = 0
KCR1 191612Z 34024KT 02/M07 A3031 RMK A01 T00181066  RH  054%=      5-min Rain = 0
KCR1 191613Z 35024KT 02/M07 A3031 RMK A01 T00181068  RH  053%=      5-min Rain = 0
KCR1 191614Z 35023KT 02/M07 A3031 RMK A01 T00171068  RH  053%=      5-min Rain = 0
KCR1 191615Z 35023G28KT 02/M07 A3031 RMK A01 T00191067  RH  053%=      5-min Rain = 0
KCR1 191616Z 36022KT 02/M07 A3031 RMK A01 T00181067  RH  053%=      5-min Rain = 0
KCR1 191617Z 34022KT 02/M07 A3031 RMK A01 T00201066  RH  053%=      5-min Rain = 0
KCR1 191618Z 35019KT 02/M07 A3031 RMK A01 T00201066  RH  053%=      5-min Rain = 0
KCR1 191619Z 34025G30KT 02/M07 A3031 RMK A01 T00211066  RH  053%=      5-min Rain = 0
KCR1 191620Z 34021G27KT 02/M07 A3031 RMK A01 T00211067  RH  052%=      5-min Rain = 0
KCR1 191621Z 34022KT 02/M07 A3031 RMK A01 T00211069  RH  052%=      5-min Rain = 0
KCR1 191622Z 34022KT 02/M07 A3031 RMK A01 T00211068  RH  052%=      5-min Rain = 0
KCR1 191623Z 34024KT 02/M07 A3031 RMK A01 T00211068  RH  052%=      5-min Rain = 0
KCR1 191624Z 34023KT 02/M07 A3031 RMK A01 T00201068  RH  052%=      5-min Rain = 0
KCR1 191625Z 35021KT 02/M07 A3031 RMK A01 T00201068  RH  052%=      5-min Rain = 0
KCR1 191626Z 34019KT 02/M07 A3031 RMK A01 T00201067  RH  052%=      5-min Rain = 0
KCR1 191627Z 33018G24KT 02/M07 A3031 RMK A01 T00211067  RH  052%=      5-min Rain = 0
KCR1 191628Z 34019G24KT 02/M07 A3031 RMK A01 T00231065  RH  053%=      5-min Rain = 0
KCR1 191629Z 34020KT 02/M07 A3032 RMK A01 T00241066  RH  051%=      5-min Rain = 0
KCR1 191630Z 34023KT 02/M07 A3032 RMK A01 T00241067  RH  051%=      5-min Rain = 0
KCR1 191631Z 35021KT 02/M07 A3032 RMK A01 T00231067  RH  051%=      5-min Rain = 0
KCR1 191632Z 34018KT 02/M07 A3032 RMK A01 T00241067  RH  051%=      5-min Rain = 0
KCR1 191633Z 34019KT 03/M07 A3032 RMK A01 T00251066  RH  051%=      5-min Rain = 0
KCR1 191634Z 34024KT 03/M07 A3032 RMK A01 T00261067  RH  050%=      5-min Rain = 0
KCR1 191635Z 34021KT 03/M07 A3032 RMK A01 T00261069  RH  050%=      5-min Rain = 0
KCR1 191636Z 34022KT 03/M07 A3032 RMK A01 T00261069  RH  050%=      5-min Rain = 0
KCR1 191637Z 34024KT 03/M07 A3032 RMK A01 T00251070  RH  049%=      5-min Rain = 0
KCR1 191638Z 34023KT 03/M07 A3032 RMK A01 T00251070  RH  050%=      5-min Rain = 0
KCR1 191639Z 34021KT 02/M07 A3032 RMK A01 T00241070  RH  050%=      5-min Rain = 0
KCR1 191640Z 34020G25KT 03/M07 A3032 RMK A01 T00251069  RH  050%=      5-min Rain = 0
KCR1 191641Z 33020G25KT 03/M07 A3032 RMK A01 T00261069  RH  050%=      5-min Rain = 0
KCR1 191642Z 34021KT 03/M07 A3032 RMK A01 T00271069  RH  049%=      5-min Rain = 0
KCR1 191643Z 34024G31KT 03/M07 A3032 RMK A01 T00281070  RH  049%=      5-min Rain = 0
KCR1 191644Z 35024KT 03/M07 A3032 RMK A01 T00271071  RH  048%=      5-min Rain = 0
KCR1 191645Z 35024G30KT 03/M07 A3032 RMK A01 T00281071  RH  048%=      5-min Rain = 0
KCR1 191646Z 36025KT 03/M07 A3032 RMK A01 T00281072  RH  048%=      5-min Rain = 0
KCR1 191647Z 35023G28KT 03/M07 A3032 RMK A01 T00281072  RH  048%=      5-min Rain = 0
KCR1 191648Z 35022KT 03/M07 A3032 RMK A01 T00281072  RH  048%=      5-min Rain = 0
KCR1 191649Z 35024KT 03/M07 A3032 RMK A01 T00291071  RH  048%=      5-min Rain = 0
KCR1 191650Z 34018KT 03/M07 A3032 RMK A01 T00301068  RH  048%=      5-min Rain = 0
KCR1 191651Z 35021G27KT 03/M07 A3032 RMK A01 T00331066  RH  048%=      5-min Rain = 0
KCR1 191652Z 35022G29KT 03/M07 A3032 RMK A01 T00331069  RH  047%=      5-min Rain = 0
KCR1 191653Z 34020G28KT 03/M07 A3032 RMK A01 T00321070  RH  047%=      5-min Rain = 0
KCR1 191654Z 34024KT 03/M07 A3032 RMK A01 T00321070  RH  047%=      5-min Rain = 0
KCR1 191655Z 34021KT 03/M07 A3032 RMK A01 T00311071  RH  047%=      5-min Rain = 0
KCR1 191656Z 34021G27KT 03/M07 A3032 RMK A01 T00311070  RH  047%=      5-min Rain = 0
KCR1 191657Z 35022G29KT 03/M07 A3032 RMK A01 T00321070  RH  047%=      5-min Rain = 0
KCR1 191658Z 35024KT 03/M07 A3032 RMK A01 T00321070  RH  047%=      5-min Rain = 0
KCR1 191659Z 35025KT 03/M07 A3032 RMK A01 T00321070  RH  047%=      5-min Rain = 0
KCR1 191700Z 35024KT 03/M07 A3032 RMK A01 T00311073  RH  047%=      5-min Rain = 0
KCR1 191701Z 34020KT 03/M07 A3032 RMK A01 T00311070  RH  047%=      5-min Rain = 0
KCR1 191702Z 35021KT 03/M07 A3032 RMK A01 T00321071  RH  047%=      5-min Rain = 0
KCR1 191703Z 35018KT 03/M07 A3032 RMK A01 T00311070  RH  047%=      5-min Rain = 0
KCR1 191704Z 35022KT 03/M07 A3032 RMK A01 T00331069  RH  047%=      5-min Rain = 0
KCR1 191705Z 34021KT 03/M07 A3032 RMK A01 T00331069  RH  047%=      5-min Rain = 0
KCR1 191706Z 34024KT 03/M07 A3032 RMK A01 T00331069  RH  047%=      5-min Rain = 0
KCR1 191707Z 34024KT 03/M07 A3032 RMK A01 T00321069  RH  047%=      5-min Rain = 0
KCR1 191708Z 34021G26KT 03/M07 A3032 RMK A01 T00311070  RH  047%=      5-min Rain = 0
KCR1 191709Z 34019KT 03/M07 A3032 RMK A01 T00311070  RH  048%=      5-min Rain = 0
KCR1 191710Z 34019KT 03/M07 A3032 RMK A01 T00321068  RH  048%=      5-min Rain = 0
KCR1 191711Z 35019KT 03/M07 A3032 RMK A01 T00331067  RH  048%=      5-min Rain = 0
KCR1 191712Z 35021G28KT 04/M07 A3032 RMK A01 T00351065  RH  048%=      5-min Rain = 0
KCR1 191713Z 34022KT 04/M07 A3032 RMK A01 T00361066  RH  047%=      5-min Rain = 0
KCR1 191714Z 33022KT 04/M07 A3032 RMK A01 T00361069  RH  046%=      5-min Rain = 0
KCR1 191715Z 34022G27KT 03/M07 A3032 RMK A01 T00341071  RH  046%=      5-min Rain = 0
KCR1 191716Z 34020G26KT 03/M07 A3032 RMK A01 T00331070  RH  047%=      5-min Rain = 0
KCR1 191717Z 34024G29KT 03/M07 A3032 RMK A01 T00341070  RH  046%=      5-min Rain = 0
KCR1 191718Z 34023G29KT 03/M07 A3032 RMK A01 T00341071  RH  046%=      5-min Rain = 0
KCR1 191719Z 34021KT 03/M07 A3032 RMK A01 T00341070  RH  046%=      5-min Rain = 0
KCR1 191720Z 34021KT 04/M07 A3032 RMK A01 T00361069  RH  046%=      5-min Rain = 0
KCR1 191721Z 34020KT 04/M07 A3032 RMK A01 T00361070  RH  046%=      5-min Rain = 0
KCR1 191722Z 34020G26KT 04/M07 A3032 RMK A01 T00351070  RH  046%=      5-min Rain = 0
KCR1 191723Z 34020G27KT 04/M07 A3032 RMK A01 T00371069  RH  046%=      5-min Rain = 0
KCR1 191724Z 34023KT 04/M07 A3032 RMK A01 T00361072  RH  045%=      5-min Rain = 0
KCR1 191725Z 34019KT 03/M07 A3032 RMK A01 T00341074  RH  045%=      5-min Rain = 0
KCR1 191726Z 34019KT 04/M07 A3032 RMK A01 T00361070  RH  046%=      5-min Rain = 0
KCR1 191727Z 34024KT 04/M07 A3032 RMK A01 T00371071  RH  045%=      5-min Rain = 0
KCR1 191728Z 35021KT 04/M07 A3032 RMK A01 T00371072  RH  045%=      5-min Rain = 0
KCR1 191729Z 34022KT 04/M07 A3032 RMK A01 T00371072  RH  045%=      5-min Rain = 0
KCR1 191730Z 34022G27KT 04/M07 A3032 RMK A01 T00381073  RH  044%=      5-min Rain = 0
KCR1 191731Z 34023G28KT 04/M08 A3032 RMK A01 T00371075  RH  044%=      5-min Rain = 0
KCR1 191732Z 35025G35KT 04/M08 A3032 RMK A01 T00371075  RH  044%=      5-min Rain = 0
KCR1 191733Z 35026KT 04/M08 A3032 RMK A01 T00371076  RH  043%=      5-min Rain = 0
KCR1 191734Z 34025G30KT 04/M08 A3032 RMK A01 T00371077  RH  043%=      5-min Rain = 0
KCR1 191735Z 35027KT 04/M08 A3032 RMK A01 T00361077  RH  043%=      5-min Rain = 0
KCR1 191736Z 35022KT 04/M08 A3032 RMK A01 T00361078  RH  043%=      5-min Rain = 0
KCR1 191737Z 35022G27KT 04/M08 A3032 RMK A01 T00371076  RH  043%=      5-min Rain = 0
KCR1 191738Z 35024G33KT 04/M08 A3032 RMK A01 T00381076  RH  043%=      5-min Rain = 0
KCR1 191739Z 36026KT 04/M08 A3032 RMK A01 T00381077  RH  043%=      5-min Rain = 0
KCR1 191740Z 00025G30KT 04/M08 A3032 RMK A01 T00381076  RH  043%=      5-min Rain = 0
KCR1 191741Z 36026KT 04/M08 A3032 RMK A01 T00391076  RH  043%=      5-min Rain = 0
KCR1 191742Z 35025KT 04/M08 A3032 RMK A01 T00381078  RH  042%=      5-min Rain = 0
KCR1 191743Z 35028KT 04/M08 A3032 RMK A01 T00381077  RH  043%=      5-min Rain = 0
KCR1 191744Z 35026KT 04/M08 A3032 RMK A01 T00381077  RH  043%=      5-min Rain = 0
KCR1 191745Z 35025G32KT 04/M08 A3032 RMK A01 T00381077  RH  043%=      5-min Rain = 0
KCR1 191746Z 35024KT 04/M08 A3032 RMK A01 T00381077  RH  043%=      5-min Rain = 0
KCR1 191747Z 35026G31KT 04/M08 A3032 RMK A01 T00391077  RH  043%=      5-min Rain = 0
KCR1 191748Z 34025G31KT 04/M08 A3032 RMK A01 T00391078  RH  042%=      5-min Rain = 0
KCR1 191749Z 34024KT 04/M08 A3032 RMK A01 T00401077  RH  042%=      5-min Rain = 0
KCR1 191750Z 34021KT 04/M08 A3032 RMK A01 T00411077  RH  042%=      5-min Rain = 0
KCR1 191751Z 34025G31KT 04/M08 A3032 RMK A01 T00421076  RH  042%=      5-min Rain = 0
KCR1 191752Z 35026KT 04/M08 A3032 RMK A01 T00411078  RH  042%=      5-min Rain = 0
KCR1 191753Z 35023KT 04/M08 A3032 RMK A01 T00401078  RH  042%=      5-min Rain = 0
KCR1 191754Z 35020KT 04/M08 A3032 RMK A01 T00411075  RH  042%=      5-min Rain = 0
KCR1 191755Z 34020KT 04/M08 A3032 RMK A01 T00431075  RH  042%=      5-min Rain = 0
KCR1 191756Z 34021KT 04/M08 A3032 RMK A01 T00421075  RH  042%=      5-min Rain = 0
KCR1 191757Z 34023G29KT 04/M07 A3032 RMK A01 T00441073  RH  042%=      5-min Rain = 0
KCR1 191758Z 34025G30KT 04/M08 A3032 RMK A01 T00441076  RH  041%=      5-min Rain = 0
KCR1 191759Z 34027G32KT 04/M08 A3032 RMK A01 T00421078  RH  041%=      5-min Rain = 0
KCR1 191800Z 34027KT 04/M08 A3032 RMK A01 T00411079  RH  041%=      5-min Rain = 0
KCR1 191801Z 34027KT 04/M08 A3032 RMK A01 T00411080  RH  041%=      5-min Rain = 0
KCR1 191802Z 34021KT 04/M08 A3032 RMK A01 T00411077  RH  042%=      5-min Rain = 0
KCR1 191803Z 34019KT 04/M07 A3032 RMK A01 T00441073  RH  042%=      5-min Rain = 0
KCR1 191804Z 33019KT 05/M07 A3032 RMK A01 T00461072  RH  042%=      5-min Rain = 0
KCR1 191805Z 34019KT 05/M07 A3032 RMK A01 T00461074  RH  041%=      5-min Rain = 0
KCR1 191806Z 34023KT 05/M07 A3032 RMK A01 T00461073  RH  042%=      5-min Rain = 0
KCR1 191807Z 35024G30KT 05/M08 A3032 RMK A01 T00451076  RH  041%=      5-min Rain = 0
KCR1 191808Z 36024G29KT 04/M08 A3032 RMK A01 T00441076  RH  041%=      5-min Rain = 0
KCR1 191809Z 35021KT 04/M08 A3032 RMK A01 T00431075  RH  042%=      5-min Rain = 0
KCR1 191810Z 35024G29KT 04/M08 A3032 RMK A01 T00431075  RH  042%=      5-min Rain = 0
KCR1 191811Z 36027KT 04/M08 A3032 RMK A01 T00431076  RH  042%=      5-min Rain = 0
KCR1 191812Z 36024KT 04/M08 A3032 RMK A01 T00421077  RH  041%=      5-min Rain = 0
KCR1 191813Z 35024KT 04/M08 A3032 RMK A01 T00411077  RH  042%=      5-min Rain = 0
KCR1 191814Z 35023KT 04/M08 A3032 RMK A01 T00421076  RH  042%=      5-min Rain = 0
KCR1 191815Z 35023G28KT 04/M08 A3032 RMK A01 T00431076  RH  042%=      5-min Rain = 0
KCR1 191816Z 34021KT 04/M08 A3031 RMK A01 T00431076  RH  042%=      5-min Rain = 0
KCR1 191817Z 34020G25KT 04/M07 A3031 RMK A01 T00431074  RH  042%=      5-min Rain = 0
KCR1 191818Z 34023KT 05/M07 A3031 RMK A01 T00461071  RH  042%=      5-min Rain = 0
KCR1 191819Z 35025KT 05/M07 A3031 RMK A01 T00461074  RH  041%=      5-min Rain = 0
KCR1 191820Z 35027G34KT 05/M08 A3031 RMK A01 T00461076  RH  041%=      5-min Rain = 0
KCR1 191821Z 35024G29KT 05/M08 A3031 RMK A01 T00461079  RH  040%=      5-min Rain = 0
KCR1 191822Z 36020G25KT 05/M08 A3031 RMK A01 T00451079  RH  040%=      5-min Rain = 0
KCR1 191823Z 35020G25KT 05/M08 A3031 RMK A01 T00461078  RH  040%=      5-min Rain = 0
KCR1 191824Z 35019G24KT 05/M08 A3031 RMK A01 T00471077  RH  040%=      5-min Rain = 0
KCR1 191825Z 35023KT 05/M07 A3031 RMK A01 T00491074  RH  041%=      5-min Rain = 0
KCR1 191826Z 35020KT 05/M08 A3031 RMK A01 T00491077  RH  040%=      5-min Rain = 0
KCR1 191827Z 35023G29KT 05/M08 A3031 RMK A01 T00481077  RH  040%=      5-min Rain = 0
KCR1 191828Z 36024KT 05/M08 A3031 RMK A01 T00491077  RH  040%=      5-min Rain = 0
KCR1 191829Z 35022G27KT 05/M08 A3031 RMK A01 T00471078  RH  040%=      5-min Rain = 0
KCR1 191830Z 35024KT 05/M08 A3031 RMK A01 T00481076  RH  040%=      5-min Rain = 0
KCR1 191831Z 34021KT 05/M08 A3031 RMK A01 T00461079  RH  040%=      5-min Rain = 0
KCR1 191832Z 34019KT 05/M08 A303 RMK A01 T00461078  RH  040%=      5-min Rain = 0
KCR1 191833Z 35020G27KT 05/M07 A303 RMK A01 T00481074  RH  041%=      5-min Rain = 0
KCR1 191834Z 36025KT 05/M08 A303 RMK A01 T00491076  RH  040%=      5-min Rain = 0
KCR1 191835Z 36021G28KT 05/M08 A303 RMK A01 T00481077  RH  040%=      5-min Rain = 0
KCR1 191836Z 36023KT 05/M08 A303 RMK A01 T00491075  RH  040%=      5-min Rain = 0
KCR1 191837Z 36022KT 05/M08 A303 RMK A01 T00481078  RH  040%=      5-min Rain = 0
KCR1 191838Z 00023KT 05/M08 A303 RMK A01 T00471078  RH  040%=      5-min Rain = 0
KCR1 191839Z 35024KT 05/M08 A303 RMK A01 T00471078  RH  040%=      5-min Rain = 0
KCR1 191840Z 00022KT 05/M08 A303 RMK A01 T00471077  RH  040%=      5-min Rain = 0
KCR1 191841Z 00023G29KT 05/M07 A303 RMK A01 T00491074  RH  040%=      5-min Rain = 0
KCR1 191842Z 35021G26KT 05/M08 A303 RMK A01 T00501075  RH  040%=      5-min Rain = 0
KCR1 191843Z 35020KT 05/M08 A303 RMK A01 T00501075  RH  040%=      5-min Rain = 0
KCR1 191844Z 36024KT 05/M07 A303 RMK A01 T00521073  RH  040%=      5-min Rain = 0
KCR1 191845Z 35023KT 05/M07 A303 RMK A01 T00521074  RH  040%=      5-min Rain = 0
KCR1 191846Z 35022KT 05/M08 A303 RMK A01 T00501078  RH  039%=      5-min Rain = 0
KCR1 191847Z 00022G27KT 05/M08 A3029 RMK A01 T00491077  RH  040%=      5-min Rain = 0
KCR1 191848Z 35025G33KT 05/M08 A3029 RMK A01 T00501077  RH  040%=      5-min Rain = 0
KCR1 191849Z 34024G29KT 05/M08 A3029 RMK A01 T00501077  RH  039%=      5-min Rain = 0
KCR1 191850Z 35017G25KT 05/M08 A3029 RMK A01 T00511075  RH  040%=      5-min Rain = 0
KCR1 191851Z 36022KT 05/M07 A3029 RMK A01 T00531074  RH  039%=      5-min Rain = 0
KCR1 191852Z 35023KT 05/M08 A303 RMK A01 T00521076  RH  039%=      5-min Rain = 0
KCR1 191853Z 35023KT 05/M08 A303 RMK A01 T00521076  RH  039%=      5-min Rain = 0
KCR1 191854Z 34020KT 05/M08 A3029 RMK A01 T00511079  RH  039%=      5-min Rain = 0
KCR1 191855Z 34018KT 05/M08 A3029 RMK A01 T00501078  RH  039%=      5-min Rain = 0
KCR1 191856Z 35022G27KT 05/M08 A3029 RMK A01 T00521075  RH  039%=      5-min Rain = 0
KCR1 191857Z 35020G25KT 05/M08 A3029 RMK A01 T00531077  RH  039%=      5-min Rain = 0
KCR1 191858Z 36022G27KT 05/M08 A3029 RMK A01 T00531078  RH  038%=      5-min Rain = 0
KCR1 191859Z 35022G28KT 05/M08 A3029 RMK A01 T00521078  RH  039%=      5-min Rain = 0
KCR1 191900Z 00023G28KT 05/M08 A3029 RMK A01 T00541075  RH  039%=      5-min Rain = 0
KCR1 191901Z 00023KT 05/M08 A3029 RMK A01 T00541077  RH  038%=      5-min Rain = 0
KCR1 191902Z 35021G26KT 05/M08 A3029 RMK A01 T00531077  RH  039%=      5-min Rain = 0
KCR1 191903Z 35022G27KT 05/M08 A3029 RMK A01 T00531077  RH  039%=      5-min Rain = 0
KCR1 191904Z 34023G28KT 05/M08 A3029 RMK A01 T00521078  RH  038%=      5-min Rain = 0
KCR1 191905Z 35020G26KT 05/M08 A3029 RMK A01 T00521079  RH  038%=      5-min Rain = 0
KCR1 191906Z 34020G25KT 05/M08 A3029 RMK A01 T00521077  RH  039%=      5-min Rain = 0
KCR1 191907Z 33021G27KT 05/M08 A3029 RMK A01 T00541077  RH  038%=      5-min Rain = 0
KCR1 191908Z 34022G28KT 05/M08 A3029 RMK A01 T00541077  RH  038%=      5-min Rain = 0
KCR1 191909Z 35023G28KT 05/M08 A3029 RMK A01 T00541078  RH  038%=      5-min Rain = 0
KCR1 191910Z 34021G29KT 05/M08 A3029 RMK A01 T00531078  RH  038%=      5-min Rain = 0
KCR1 191911Z 34023G29KT 05/M08 A3029 RMK A01 T00541077  RH  038%=      5-min Rain = 0
KCR1 191912Z 34023KT 05/M08 A3029 RMK A01 T00521079  RH  038%=      5-min Rain = 0
KCR1 191913Z 35021KT 05/M08 A3029 RMK A01 T00511079  RH  038%=      5-min Rain = 0
KCR1 191914Z 34020KT 05/M08 A3029 RMK A01 T00531076  RH  039%=      5-min Rain = 0
KCR1 191915Z 35023G28KT 05/M08 A303 RMK A01 T00531078  RH  038%=      5-min Rain = 0
KCR1 191916Z 34021KT 05/M08 A303 RMK A01 T00521079  RH  038%=      5-min Rain = 0
KCR1 191917Z 33021KT 05/M08 A3029 RMK A01 T00531077  RH  039%=      5-min Rain = 0
KCR1 191918Z 34021G26KT 05/M08 A3029 RMK A01 T00531077  RH  038%=      5-min Rain = 0
KCR1 191919Z 33021KT 05/M08 A3029 RMK A01 T00531077  RH  039%=      5-min Rain = 0
KCR1 191920Z 33021KT 06/M08 A3029 RMK A01 T00551077  RH  038%=      5-min Rain = 0
KCR1 191921Z 34025G30KT 05/M08 A3029 RMK A01 T00541078  RH  038%=      5-min Rain = 0
KCR1 191922Z 34022G27KT 05/M08 A3029 RMK A01 T00531081  RH  037%=      5-min Rain = 0
KCR1 191923Z 34022G27KT 05/M08 A3029 RMK A01 T00531078  RH  038%=      5-min Rain = 0
KCR1 191924Z 34026G32KT 05/M08 A3029 RMK A01 T00541080  RH  037%=      5-min Rain = 0
KCR1 191925Z 34023G30KT 05/M08 A3029 RMK A01 T00541082  RH  037%=      5-min Rain = 0
KCR1 191926Z 35020KT 05/M08 A3029 RMK A01 T00541080  RH  037%=      5-min Rain = 0
KCR1 191927Z 36020KT 06/M08 A3029 RMK A01 T00551079  RH  037%=      5-min Rain = 0
KCR1 191928Z 00020G25KT 06/M08 A3029 RMK A01 T00551079  RH  037%=      5-min Rain = 0
KCR1 191929Z 35022G28KT 06/M08 A3029 RMK A01 T00551079  RH  037%=      5-min Rain = 0
KCR1 191930Z 35025KT 06/M08 A3029 RMK A01 T00551080  RH  037%=      5-min Rain = 0
KCR1 191931Z 35024G30KT 05/M08 A3029 RMK A01 T00541082  RH  037%=      5-min Rain = 0
KCR1 191932Z 35026G31KT 05/M08 A3029 RMK A01 T00531084  RH  036%=      5-min Rain = 0
KCR1 191933Z 35022KT 05/M08 A3029 RMK A01 T00521083  RH  037%=      5-min Rain = 0
KCR1 191934Z 36024KT 06/M08 A3029 RMK A01 T00551080  RH  037%=      5-min Rain = 0
KCR1 191935Z 00022KT 06/M08 A3029 RMK A01 T00571078  RH  037%=      5-min Rain = 0
KCR1 191936Z 35021KT 06/M08 A3029 RMK A01 T00581078  RH  037%=      5-min Rain = 0
KCR1 191937Z 34023KT 06/M08 A3029 RMK A01 T00581080  RH  036%=      5-min Rain = 0
KCR1 191938Z 34023KT 06/M08 A3029 RMK A01 T00561081  RH  037%=      5-min Rain = 0
KCR1 191939Z 34022KT 06/M08 A3029 RMK A01 T00551081  RH  037%=      5-min Rain = 0
KCR1 191940Z 34026KT 05/M08 A3029 RMK A01 T00541082  RH  037%=      5-min Rain = 0
KCR1 191941Z 35022KT 05/M08 A3029 RMK A01 T00531081  RH  037%=      5-min Rain = 0
KCR1 191942Z 35020KT 05/M08 A3029 RMK A01 T00541080  RH  037%=      5-min Rain = 0
KCR1 191943Z 35021G26KT 05/M08 A3029 RMK A01 T00541080  RH  037%=      5-min Rain = 0
KCR1 191944Z 34023KT 06/M08 A3029 RMK A01 T00551081  RH  037%=      5-min Rain = 0
KCR1 191945Z 35022KT 05/M08 A3029 RMK A01 T00531083  RH  037%=      5-min Rain = 0
KCR1 191946Z 34022KT 05/M08 A3029 RMK A01 T00531082  RH  037%=      5-min Rain = 0
KCR1 191947Z 34019KT 05/M08 A3029 RMK A01 T00521083  RH  037%=      5-min Rain = 0
KCR1 191948Z 34020KT 05/M08 A3029 RMK A01 T00521082  RH  037%=      5-min Rain = 0
KCR1 191949Z 00022KT 05/M08 A3029 RMK A01 T00541080  RH  037%=      5-min Rain = 0
KCR1 191950Z 36021KT 05/M08 A3029 RMK A01 T00541080  RH  037%=      5-min Rain = 0
KCR1 191951Z 36022KT 05/M08 A3029 RMK A01 T00541081  RH  037%=      5-min Rain = 0
KCR1 191952Z 35024KT 05/M08 A3029 RMK A01 T00531083  RH  037%=      5-min Rain = 0
KCR1 191953Z 35020G25KT 05/M08 A3029 RMK A01 T00531083  RH  037%=      5-min Rain = 0
KCR1 191954Z 34023KT 06/M08 A3029 RMK A01 T00561079  RH  037%=      5-min Rain = 0
KCR1 191955Z 35026KT 06/M08 A3029 RMK A01 T00561082  RH  036%=      5-min Rain = 0
KCR1 191956Z 35026KT 06/M08 A3029 RMK A01 T00551084  RH  036%=      5-min Rain = 0
KCR1 191957Z 35024KT 05/M09 A3029 RMK A01 T00541086  RH  036%=      5-min Rain = 0
KCR1 191958Z 35024KT 05/M09 A3029 RMK A01 T00541085  RH  036%=      5-min Rain = 0
KCR1 191959Z 35023G28KT 05/M09 A3029 RMK A01 T00541085  RH  036%=      5-min Rain = 0
KCR1 192000Z 35022KT 05/M09 A3029 RMK A01 T00531085  RH  036%=      5-min Rain = 0
KCR1 192001Z 36022KT 05/M08 A3028 RMK A01 T00541084  RH  036%=      5-min Rain = 0
KCR1 192002Z 35022KT 05/M08 A3028 RMK A01 T00531084  RH  036%=      5-min Rain = 0
KCR1 192003Z 35022KT 05/M08 A3028 RMK A01 T00541082  RH  037%=      5-min Rain = 0
KCR1 192004Z 35025KT 06/M08 A3028 RMK A01 T00551082  RH  036%=      5-min Rain = 0
KCR1 192005Z 36025KT 06/M08 A3028 RMK A01 T00551082  RH  036%=      5-min Rain = 0
KCR1 192006Z 35023KT 06/M08 A3028 RMK A01 T00551083  RH  036%=      5-min Rain = 0
KCR1 192007Z 35022KT 06/M08 A3028 RMK A01 T00551082  RH  036%=      5-min Rain = 0
KCR1 192008Z 00022KT 05/M08 A3028 RMK A01 T00541084  RH  036%=      5-min Rain = 0
KCR1 192009Z 00020KT 05/M08 A3028 RMK A01 T00541084  RH  036%=      5-min Rain = 0
KCR1 192010Z 35018KT 05/M08 A3028 RMK A01 T00541082  RH  037%=      5-min Rain = 0
KCR1 192011Z 36022G27KT 06/M08 A3029 RMK A01 T00571078  RH  037%=      5-min Rain = 0
KCR1 192012Z 34021KT 06/M08 A3029 RMK A01 T00561082  RH  036%=      5-min Rain = 0
KCR1 192013Z 34018KT 06/M08 A3029 RMK A01 T00551083  RH  036%=      5-min Rain = 0
KCR1 192014Z 34020KT 06/M08 A3029 RMK A01 T00561082  RH  037%=      5-min Rain = 0
KCR1 192015Z 34021KT 06/M08 A3028 RMK A01 T00551083  RH  036%=      5-min Rain = 0
KCR1 192016Z 34019KT 06/M08 A3028 RMK A01 T00551082  RH  036%=      5-min Rain = 0
KCR1 192017Z 34017KT 06/M08 A3028 RMK A01 T00561081  RH  037%=      5-min Rain = 0
KCR1 192018Z 35020G26KT 06/M08 A3028 RMK A01 T00571080  RH  037%=      5-min Rain = 0
KCR1 192019Z 35020G27KT 06/M08 A3028 RMK A01 T00571081  RH  036%=      5-min Rain = 0
KCR1 192020Z 34021KT 06/M08 A3028 RMK A01 T00561083  RH  036%=      5-min Rain = 0
KCR1 192021Z 35020KT 06/M08 A3028 RMK A01 T00561082  RH  036%=      5-min Rain = 0
KCR1 192022Z 35018KT 06/M08 A3028 RMK A01 T00561082  RH  036%=      5-min Rain = 0
KCR1 192023Z 35021G26KT 06/M08 A3028 RMK A01 T00571080  RH  037%=      5-min Rain = 0
KCR1 192024Z 34021KT 06/M08 A3028 RMK A01 T00581081  RH  036%=      5-min Rain = 0
KCR1 192025Z 34018G23KT 06/M09 A3028 RMK A01 T00561085  RH  036%=      5-min Rain = 0
KCR1 192026Z 33015KT 06/M08 A3028 RMK A01 T00551083  RH  036%=      5-min Rain = 0
KCR1 192027Z 34013KT 06/M08 A3028 RMK A01 T00561079  RH  037%=      5-min Rain = 0
KCR1 192028Z 36016KT 06/M08 A3027 RMK A01 T00601076  RH  037%=      5-min Rain = 0
KCR1 192029Z 36019KT 06/M08 A3027 RMK A01 T00601080  RH  036%=      5-min Rain = 0
KCR1 192030Z 00019G25KT 06/M08 A3027 RMK A01 T00601081  RH  036%=      5-min Rain = 0
KCR1 192031Z 36022G27KT 06/M08 A3027 RMK A01 T00591081  RH  036%=      5-min Rain = 0
KCR1 192032Z 00022KT 06/M08 A3027 RMK A01 T00591083  RH  035%=      5-min Rain = 0
KCR1 192033Z 36024KT 06/M08 A3027 RMK A01 T00581083  RH  036%=      5-min Rain = 0
KCR1 192034Z 36021KT 06/M08 A3027 RMK A01 T00561083  RH  036%=      5-min Rain = 0
KCR1 192035Z 35020KT 06/M08 A3027 RMK A01 T00571082  RH  036%=      5-min Rain = 0
KCR1 192036Z 01019KT 06/M08 A3027 RMK A01 T00571081  RH  036%=      5-min Rain = 0
KCR1 192037Z 00020KT 06/M08 A3027 RMK A01 T00581082  RH  036%=      5-min Rain = 0
KCR1 192038Z 35020KT 06/M08 A3027 RMK A01 T00571082  RH  036%=      5-min Rain = 0
KCR1 192039Z 34017G22KT 06/M08 A3027 RMK A01 T00561083  RH  036%=      5-min Rain = 0
KCR1 192040Z 33020KT 06/M08 A3027 RMK A01 T00571082  RH  036%=      5-min Rain = 0
KCR1 192041Z 36018KT 06/M08 A3027 RMK A01 T00571082  RH  036%=      5-min Rain = 0
KCR1 192042Z 00021G26KT 06/M08 A3027 RMK A01 T00561084  RH  036%=      5-min Rain = 0
KCR1 192043Z 36021KT 06/M08 A3027 RMK A01 T00551084  RH  036%=      5-min Rain = 0
KCR1 192044Z 00022KT 06/M08 A3027 RMK A01 T00561084  RH  036%=      5-min Rain = 0
KCR1 192045Z 00023KT 06/M09 A3027 RMK A01 T00561085  RH  036%=      5-min Rain = 0
KCR1 192046Z 00021KT 06/M08 A3027 RMK A01 T00561083  RH  036%=      5-min Rain = 0
KCR1 192047Z 00022KT 06/M08 A3027 RMK A01 T00581081  RH  036%=      5-min Rain = 0
KCR1 192048Z 36023KT 06/M08 A3027 RMK A01 T00581083  RH  035%=      5-min Rain = 0
KCR1 192049Z 36023KT 06/M08 A3027 RMK A01 T00561084  RH  036%=      5-min Rain = 0
KCR1 192050Z 00019KT 06/M08 A3027 RMK A01 T00571081  RH  036%=      5-min Rain = 0
KCR1 192051Z 35019KT 06/M08 A3028 RMK A01 T00591078  RH  037%=      5-min Rain = 0
KCR1 192052Z 35017KT 06/M08 A3028 RMK A01 T00591081  RH  036%=      5-min Rain = 0
KCR1 192053Z 35018KT 06/M08 A3028 RMK A01 T00581082  RH  036%=      5-min Rain = 0
KCR1 192054Z 35020KT 06/M08 A3027 RMK A01 T00571082  RH  036%=      5-min Rain = 0
KCR1 192055Z 35021KT 06/M08 A3027 RMK A01 T00581081  RH  036%=      5-min Rain = 0
KCR1 192056Z 35021KT 06/M08 A3027 RMK A01 T00591081  RH  036%=      5-min Rain = 0
KCR1 192057Z 35023KT 06/M08 A3027 RMK A01 T00581081  RH  036%=      5-min Rain = 0
KCR1 192058Z 35021KT 06/M08 A3027 RMK A01 T00571084  RH  036%=      5-min Rain = 0
KCR1 192059Z 36019KT 06/M08 A3027 RMK A01 T00561083  RH  036%=      5-min Rain = 0
KCR1 192100Z 35021KT 06/M08 A3027 RMK A01 T00561084  RH  036%=      5-min Rain = 0
KCR1 192101Z 35024KT 06/M08 A3027 RMK A01 T00571084  RH  036%=      5-min Rain = 0
KCR1 192102Z 36022KT 06/M08 A3027 RMK A01 T00581082  RH  036%=      5-min Rain = 0
KCR1 192103Z 36021KT 06/M08 A3027 RMK A01 T00581082  RH  036%=      5-min Rain = 0
KCR1 192104Z 35019KT 06/M08 A3027 RMK A01 T00581081  RH  036%=      5-min Rain = 0
KCR1 192105Z 35022KT 06/M08 A3027 RMK A01 T00601079  RH  036%=      5-min Rain = 0
KCR1 192106Z 35021KT 06/M08 A3027 RMK A01 T00611080  RH  036%=      5-min Rain = 0
KCR1 192107Z 35021KT 06/M08 A3027 RMK A01 T00601081  RH  035%=      5-min Rain = 0
KCR1 192108Z 34018G25KT 06/M08 A3027 RMK A01 T00591081  RH  036%=      5-min Rain = 0
KCR1 192109Z 36019G25KT 06/M08 A3027 RMK A01 T00591080  RH  036%=      5-min Rain = 0
KCR1 192110Z 34020KT 06/M08 A3027 RMK A01 T00591081  RH  036%=      5-min Rain = 0
KCR1 192111Z 34019G24KT 06/M08 A3027 RMK A01 T00591082  RH  036%=      5-min Rain = 0
KCR1 192112Z 34022KT 06/M08 A3027 RMK A01 T00591083  RH  035%=      5-min Rain = 0
KCR1 192113Z 34019KT 06/M08 A3027 RMK A01 T00581083  RH  036%=      5-min Rain = 0
KCR1 192114Z 34021KT 06/M08 A3027 RMK A01 T00591081  RH  036%=      5-min Rain = 0
KCR1 192115Z 35022KT 06/M08 A3028 RMK A01 T00591082  RH  035%=      5-min Rain = 0
KCR1 192116Z 35020KT 06/M08 A3028 RMK A01 T00591083  RH  035%=      5-min Rain = 0
KCR1 192117Z 36018KT 06/M08 A3027 RMK A01 T00581084  RH  035%=      5-min Rain = 0
KCR1 192118Z 35017KT 06/M08 A3028 RMK A01 T00581082  RH  036%=      5-min Rain = 0
KCR1 192119Z 35017G22KT 06/M08 A3028 RMK A01 T00601079  RH  036%=      5-min Rain = 0
KCR1 192120Z 34020G25KT 06/M08 A3028 RMK A01 T00621079  RH  036%=      5-min Rain = 0
KCR1 192121Z 34015KT 06/M08 A3028 RMK A01 T00601083  RH  035%=      5-min Rain = 0
KCR1 192122Z 34017KT 06/M08 A3028 RMK A01 T00591081  RH  036%=      5-min Rain = 0
KCR1 192123Z 32018G23KT 06/M08 A3028 RMK A01 T00601079  RH  036%=      5-min Rain = 0
KCR1 192124Z 32017KT 06/M08 A3028 RMK A01 T00601083  RH  035%=      5-min Rain = 0
KCR1 192125Z 32018G25KT 06/M08 A3028 RMK A01 T00581082  RH  036%=      5-min Rain = 0
KCR1 192126Z 32019KT 06/M08 A3028 RMK A01 T00581082  RH  036%=      5-min Rain = 0
KCR1 192127Z 33014KT 06/M08 A3028 RMK A01 T00581081  RH  036%=      5-min Rain = 0
KCR1 192128Z 33014KT 06/M08 A3028 RMK A01 T00591080  RH  036%=      5-min Rain = 0
KCR1 192129Z 34015KT 06/M08 A3028 RMK A01 T00591080  RH  036%=      5-min Rain = 0
KCR1 192130Z 34017KT 06/M08 A3028 RMK A01 T00601079  RH  036%=      5-min Rain = 0
KCR1 192131Z 35020G27KT 06/M08 A3028 RMK A01 T00601081  RH  036%=      5-min Rain = 0
KCR1 192132Z 34021KT 06/M08 A3028 RMK A01 T00601082  RH  035%=      5-min Rain = 0
KCR1 192133Z 35019KT 06/M08 A3028 RMK A01 T00601082  RH  035%=      5-min Rain = 0
KCR1 192134Z 34020KT 06/M08 A3028 RMK A01 T00601081  RH  036%=      5-min Rain = 0
KCR1 192135Z 34018KT 06/M08 A3028 RMK A01 T00601082  RH  035%=      5-min Rain = 0
KCR1 192136Z 33018KT 06/M08 A3028 RMK A01 T00591081  RH  036%=      5-min Rain = 0
KCR1 192137Z 33015KT 06/M08 A3029 RMK A01 T00591081  RH  036%=      5-min Rain = 0
KCR1 192138Z 34014KT 06/M08 A3029 RMK A01 T00591081  RH  036%=      5-min Rain = 0
KCR1 192139Z 35017KT 06/M08 A3029 RMK A01 T00611079  RH  036%=      5-min Rain = 0
KCR1 192140Z 34017KT 06/M08 A3029 RMK A01 T00611080  RH  036%=      5-min Rain = 0
KCR1 192141Z 34016KT 06/M08 A3029 RMK A01 T00611081  RH  036%=      5-min Rain = 0
KCR1 192142Z 35017KT 06/M08 A3029 RMK A01 T00611082  RH  035%=      5-min Rain = 0
KCR1 192143Z 34016KT 06/M08 A3029 RMK A01 T00601082  RH  035%=      5-min Rain = 0
KCR1 192144Z 34018KT 06/M08 A3029 RMK A01 T00611080  RH  036%=      5-min Rain = 0
KCR1 192145Z 34019KT 06/M08 A3029 RMK A01 T00611081  RH  035%=      5-min Rain = 0
KCR1 192146Z 34017KT 06/M08 A3029 RMK A01 T00601083  RH  035%=      5-min Rain = 0
KCR1 192147Z 34018G23KT 06/M08 A3029 RMK A01 T00601081  RH  036%=      5-min Rain = 0
KCR1 192148Z 35016KT 06/M08 A3029 RMK A01 T00611082  RH  035%=      5-min Rain = 0
KCR1 192149Z 34017KT 06/M08 A3029 RMK A01 T00611081  RH  035%=      5-min Rain = 0
KCR1 192150Z 35013KT 06/M08 A3029 RMK A01 T00611081  RH  035%=      5-min Rain = 0
KCR1 192151Z 34020KT 06/M08 A3029 RMK A01 T00621079  RH  036%=      5-min Rain = 0
KCR1 192152Z 34019KT 06/M08 A3029 RMK A01 T00621081  RH  035%=      5-min Rain = 0
KCR1 192153Z 33017KT 06/M08 A3029 RMK A01 T00611082  RH  035%=      5-min Rain = 0
KCR1 192154Z 33015KT 06/M08 A3029 RMK A01 T00611082  RH  035%=      5-min Rain = 0
KCR1 192155Z 35015KT 06/M08 A3029 RMK A01 T00601081  RH  035%=      5-min Rain = 0
KCR1 192156Z 34017KT 06/M08 A3029 RMK A01 T00601083  RH  035%=      5-min Rain = 0
KCR1 192157Z 35017KT 06/M08 A3029 RMK A01 T00611082  RH  035%=      5-min Rain = 0
KCR1 192158Z 36018KT 06/M08 A3029 RMK A01 T00601082  RH  035%=      5-min Rain = 0
KCR1 192159Z 35017KT 06/M08 A3029 RMK A01 T00601081  RH  035%=      5-min Rain = 0
KCR1 192200Z 35018KT 06/M08 A3029 RMK A01 T00611081  RH  036%=      5-min Rain = 0
KCR1 192201Z 34019KT 06/M08 A3029 RMK A01 T00611081  RH  035%=      5-min Rain = 0
KCR1 192202Z 34017KT 06/M08 A3029 RMK A01 T00611082  RH  035%=      5-min Rain = 0
KCR1 192203Z 34017KT 06/M08 A3029 RMK A01 T00611081  RH  035%=      5-min Rain = 0
KCR1 192204Z 35018KT 06/M08 A3029 RMK A01 T00621080  RH  035%=      5-min Rain = 0
KCR1 192205Z 35019KT 06/M08 A3029 RMK A01 T00621082  RH  035%=      5-min Rain = 0
KCR1 192206Z 35019KT 06/M08 A3029 RMK A01 T00611082  RH  035%=      5-min Rain = 0
KCR1 192207Z 35018KT 06/M08 A3029 RMK A01 T00611082  RH  035%=      5-min Rain = 0
KCR1 192208Z 35020KT 06/M08 A3029 RMK A01 T00611082  RH  035%=      5-min Rain = 0
KCR1 192209Z 36017KT 06/M08 A3029 RMK A01 T00611083  RH  035%=      5-min Rain = 0
KCR1 192210Z 35016KT 06/M08 A3029 RMK A01 T00601083  RH  035%=      5-min Rain = 0
KCR1 192211Z 35014KT 06/M08 A3029 RMK A01 T00601082  RH  035%=      5-min Rain = 0
KCR1 192212Z 35017KT 06/M08 A3029 RMK A01 T00611081  RH  035%=      5-min Rain = 0
KCR1 192213Z 34016KT 06/M08 A3029 RMK A01 T00611082  RH  035%=      5-min Rain = 0
KCR1 192214Z 35016KT 06/M08 A3029 RMK A01 T00611081  RH  035%=      5-min Rain = 0
KCR1 192215Z 35018KT 06/M08 A3029 RMK A01 T00621081  RH  035%=      5-min Rain = 0
KCR1 192216Z 35017KT 06/M08 A3029 RMK A01 T00621082  RH  035%=      5-min Rain = 0
KCR1 192217Z 36017KT 06/M08 A303 RMK A01 T00621080  RH  035%=      5-min Rain = 0
KCR1 192218Z 36016KT 06/M08 A303 RMK A01 T00621081  RH  035%=      5-min Rain = 0
KCR1 192219Z 36019KT 06/M08 A303 RMK A01 T00621080  RH  035%=      5-min Rain = 0
KCR1 192220Z 34017KT 06/M08 A303 RMK A01 T00621082  RH  035%=      5-min Rain = 0
KCR1 192221Z 34016KT 06/M08 A303 RMK A01 T00611080  RH  035%=      5-min Rain = 0
KCR1 192222Z 35014KT 06/M08 A303 RMK A01 T00611081  RH  035%=      5-min Rain = 0
KCR1 192223Z 34015G20KT 06/M08 A303 RMK A01 T00631078  RH  036%=      5-min Rain = 0
KCR1 192224Z 34017KT 06/M08 A303 RMK A01 T00631079  RH  035%=      5-min Rain = 0
KCR1 192225Z 35019KT 06/M08 A303 RMK A01 T00621081  RH  035%=      5-min Rain = 0
KCR1 192226Z 34017KT 06/M08 A303 RMK A01 T00611083  RH  035%=      5-min Rain = 0
KCR1 192227Z 35018KT 06/M08 A303 RMK A01 T00611083  RH  035%=      5-min Rain = 0
KCR1 192228Z 35018KT 06/M08 A303 RMK A01 T00601084  RH  035%=      5-min Rain = 0
KCR1 192229Z 36016KT 06/M08 A303 RMK A01 T00601083  RH  035%=      5-min Rain = 0
KCR1 192230Z 36016KT 06/M08 A303 RMK A01 T00601082  RH  035%=      5-min Rain = 0
KCR1 192231Z 36017KT 06/M08 A303 RMK A01 T00601082  RH  035%=      5-min Rain = 0
KCR1 192232Z 36016KT 06/M08 A303 RMK A01 T00611081  RH  036%=      5-min Rain = 0
KCR1 192233Z 35016KT 06/M08 A303 RMK A01 T00611081  RH  036%=      5-min Rain = 0
KCR1 192234Z 35015KT 06/M08 A303 RMK A01 T00611082  RH  035%=      5-min Rain = 0
KCR1 192235Z 35014KT 06/M08 A303 RMK A01 T00601081  RH  036%=      5-min Rain = 0
KCR1 192236Z 35016KT 06/M08 A303 RMK A01 T00611078  RH  036%=      5-min Rain = 0
KCR1 192237Z 35015KT 06/M08 A303 RMK A01 T00621079  RH  036%=      5-min Rain = 0
KCR1 192238Z 35016KT 06/M08 A303 RMK A01 T00621079  RH  036%=      5-min Rain = 0
KCR1 192239Z 35014KT 06/M08 A303 RMK A01 T00621079  RH  036%=      5-min Rain = 0
KCR1 192240Z 36013KT 06/M08 A303 RMK A01 T00611080  RH  036%=      5-min Rain = 0
KCR1 192241Z 36015KT 06/M08 A303 RMK A01 T00611077  RH  036%=      5-min Rain = 0
KCR1 192242Z 00016KT 06/M08 A303 RMK A01 T00611079  RH  036%=      5-min Rain = 0
KCR1 192243Z 36015KT 06/M08 A303 RMK A01 T00601080  RH  036%=      5-min Rain = 0
KCR1 192244Z 35015KT 06/M08 A303 RMK A01 T00601079  RH  036%=      5-min Rain = 0
KCR1 192245Z 36015KT 06/M08 A303 RMK A01 T00601080  RH  036%=      5-min Rain = 0
KCR1 192246Z 36015KT 06/M08 A303 RMK A01 T00601080  RH  036%=      5-min Rain = 0
KCR1 192247Z 01017KT 06/M08 A303 RMK A01 T00601081  RH  036%=      5-min Rain = 0
KCR1 192248Z 36017KT 06/M08 A303 RMK A01 T00601080  RH  036%=      5-min Rain = 0
KCR1 192249Z 36017KT 06/M08 A303 RMK A01 T00601079  RH  036%=      5-min Rain = 0
KCR1 192250Z 01015KT 06/M08 A303 RMK A01 T00601079  RH  036%=      5-min Rain = 0
KCR1 192251Z 36016KT 06/M08 A303 RMK A01 T00591080  RH  036%=      5-min Rain = 0
KCR1 192252Z 34015KT 06/M08 A303 RMK A01 T00591079  RH  036%=      5-min Rain = 0
KCR1 192253Z 35015KT 06/M08 A303 RMK A01 T00591080  RH  036%=      5-min Rain = 0
KCR1 192254Z 35014KT 06/M08 A303 RMK A01 T00591080  RH  036%=      5-min Rain = 0
KCR1 192255Z 35013KT 06/M08 A303 RMK A01 T00591080  RH  036%=      5-min Rain = 0
KCR1 192256Z 35013KT 06/M08 A303 RMK A01 T00591079  RH  036%=      5-min Rain = 0
KCR1 192257Z 36014KT 06/M08 A303 RMK A01 T00591078  RH  037%=      5-min Rain = 0
KCR1 192258Z 35017KT 06/M08 A303 RMK A01 T00591079  RH  036%=      5-min Rain = 0
KCR1 192259Z 00015KT 06/M08 A303 RMK A01 T00581079  RH  037%=      5-min Rain = 0
KCR1 192300Z 00015KT 06/M08 A303 RMK A01 T00581079  RH  037%=      5-min Rain = 0
KCR1 192301Z 00016KT 06/M08 A303 RMK A01 T00581080  RH  036%=      5-min Rain = 0
KCR1 192302Z 00012KT 06/M08 A303 RMK A01 T00581080  RH  037%=      5-min Rain = 0
KCR1 192303Z 00013KT 06/M08 A303 RMK A01 T00581078  RH  037%=      5-min Rain = 0
KCR1 192304Z 36015KT 06/M08 A303 RMK A01 T00581080  RH  036%=      5-min Rain = 0
KCR1 192305Z 36013KT 06/M08 A303 RMK A01 T00571081  RH  036%=      5-min Rain = 0
KCR1 192306Z 00013KT 06/M08 A303 RMK A01 T00571080  RH  037%=      5-min Rain = 0
KCR1 192307Z 35014KT 06/M08 A303 RMK A01 T00571079  RH  037%=      5-min Rain = 0
KCR1 192308Z 35011KT 06/M08 A303 RMK A01 T00571080  RH  037%=      5-min Rain = 0
KCR1 192309Z 35011KT 06/M08 A303 RMK A01 T00571077  RH  037%=      5-min Rain = 0
KCR1 192310Z 36014KT 06/M08 A303 RMK A01 T00571077  RH  037%=      5-min Rain = 0
KCR1 192311Z 35013KT 06/M08 A3031 RMK A01 T00581078  RH  037%=      5-min Rain = 0
KCR1 192312Z 35013KT 06/M08 A303 RMK A01 T00571078  RH  037%=      5-min Rain = 0
KCR1 192313Z 36013KT 06/M08 A303 RMK A01 T00571078  RH  037%=      5-min Rain = 0
KCR1 192314Z 36012KT 06/M08 A303 RMK A01 T00571079  RH  037%=      5-min Rain = 0
KCR1 192315Z 36013KT 06/M08 A303 RMK A01 T00561078  RH  037%=      5-min Rain = 0
KCR1 192316Z 35013KT 06/M08 A303 RMK A01 T00571078  RH  037%=      5-min Rain = 0
KCR1 192317Z 00011KT 06/M08 A303 RMK A01 T00571076  RH  038%=      5-min Rain = 0
KCR1 192318Z 36011KT 06/M08 A303 RMK A01 T00561075  RH  038%=      5-min Rain = 0
KCR1 192319Z 36011KT 06/M08 A303 RMK A01 T00561078  RH  038%=      5-min Rain = 0
KCR1 192320Z 35010KT 06/M08 A303 RMK A01 T00561077  RH  038%=      5-min Rain = 0
KCR1 192321Z 35010KT 06/M08 A303 RMK A01 T00551076  RH  038%=      5-min Rain = 0
KCR1 192322Z 36011KT 06/M08 A303 RMK A01 T00551078  RH  038%=      5-min Rain = 0
KCR1 192323Z 36015KT 06/M08 A303 RMK A01 T00551078  RH  038%=      5-min Rain = 0
KCR1 192324Z 35013KT 06/M08 A303 RMK A01 T00551080  RH  037%=      5-min Rain = 0
KCR1 192325Z 36011KT 06/M08 A303 RMK A01 T00551078  RH  038%=      5-min Rain = 0
KCR1 192326Z 00012KT 06/M08 A303 RMK A01 T00551076  RH  038%=      5-min Rain = 0
KCR1 192327Z 00012KT 05/M08 A303 RMK A01 T00541076  RH  038%=      5-min Rain = 0
KCR1 192328Z 00012KT 05/M08 A303 RMK A01 T00541076  RH  039%=      5-min Rain = 0
KCR1 192329Z 00011KT 05/M08 A303 RMK A01 T00531076  RH  039%=      5-min Rain = 0
KCR1 192330Z 00012KT 05/M08 A303 RMK A01 T00531076  RH  039%=      5-min Rain = 0
KCR1 192331Z 00011KT 05/M08 A303 RMK A01 T00521076  RH  039%=      5-min Rain = 0
KCR1 192332Z 01011KT 05/M08 A303 RMK A01 T00521075  RH  039%=      5-min Rain = 0
KCR1 192333Z 01011KT 05/M08 A303 RMK A01 T00521075  RH  039%=      5-min Rain = 0
KCR1 192334Z 01011KT 05/M08 A303 RMK A01 T00511077  RH  039%=      5-min Rain = 0
KCR1 192335Z 01013KT 05/M08 A303 RMK A01 T00511078  RH  039%=      5-min Rain = 0
KCR1 192336Z 01014KT 05/M08 A303 RMK A01 T00511078  RH  039%=      5-min Rain = 0
KCR1 192337Z 01012KT 05/M08 A303 RMK A01 T00511078  RH  039%=      5-min Rain = 0
KCR1 192338Z 01013KT 05/M08 A303 RMK A01 T00501077  RH  039%=      5-min Rain = 0
KCR1 192339Z 01012KT 05/M08 A303 RMK A01 T00501077  RH  040%=      5-min Rain = 0
KCR1 192340Z 01012KT 05/M08 A303 RMK A01 T00491077  RH  040%=      5-min Rain = 0
KCR1 192341Z 01014KT 05/M08 A303 RMK A01 T00491077  RH  040%=      5-min Rain = 0
KCR1 192342Z 01013KT 05/M08 A3029 RMK A01 T00481077  RH  040%=      5-min Rain = 0
KCR1 192343Z 01013KT 05/M08 A3029 RMK A01 T00481077  RH  040%=      5-min Rain = 0
KCR1 192344Z 01012KT 05/M08 A303 RMK A01 T00481077  RH  040%=      5-min Rain = 0
KCR1 192345Z 01012KT 05/M08 A303 RMK A01 T00481076  RH  040%=      5-min Rain = 0
KCR1 192346Z 00012KT 05/M08 A303 RMK A01 T00471077  RH  040%=      5-min Rain = 0
KCR1 192347Z 00011KT 05/M08 A303 RMK A01 T00471077  RH  040%=      5-min Rain = 0
KCR1 192348Z 00011KT 05/M08 A303 RMK A01 T00461077  RH  040%=      5-min Rain = 0
KCR1 192349Z 00011KT 05/M08 A303 RMK A01 T00461077  RH  040%=      5-min Rain = 0
KCR1 192350Z 00011KT 05/M08 A303 RMK A01 T00461077  RH  040%=      5-min Rain = 0
KCR1 192351Z 00011KT 05/M08 A303 RMK A01 T00461077  RH  040%=      5-min Rain = 0
KCR1 192352Z 36010KT 05/M08 A303 RMK A01 T00451077  RH  041%=      5-min Rain = 0
KCR1 192353Z 36011KT 04/M08 A303 RMK A01 T00441076  RH  041%=      5-min Rain = 0
KCR1 192354Z 00011KT 04/M08 A303 RMK A01 T00441078  RH  041%=      5-min Rain = 0
KCR1 192355Z 00010KT 04/M08 A303 RMK A01 T00441077  RH  041%=      5-min Rain = 0
KCR1 192356Z 00010KT 04/M08 A303 RMK A01 T00431076  RH  041%=      5-min Rain = 0
KCR1 192357Z 01010KT 04/M08 A303 RMK A01 T00421077  RH  042%=      5-min Rain = 0
KCR1 192358Z 01010KT 04/M08 A303 RMK A01 T00421076  RH  042%=      5-min Rain = 0
KCR1 192359Z 01008KT 04/M08 A303 RMK A01 T00411076  RH  042%=      5-min Rain = 0
KCR1 200000Z 01009KT 04/M08 A303 RMK A01 T00411076  RH  042%=      5-min Rain = 0
KCR1 200001Z 01009KT 04/M08 A303 RMK A01 T00401076  RH  042%=      5-min Rain = 0
KCR1 200002Z 01009KT 04/M08 A303 RMK A01 T00401077  RH  042%=      5-min Rain = 0
KCR1 200003Z 01008KT 04/M08 A3031 RMK A01 T00401076  RH  043%=      5-min Rain = 0
KCR1 200004Z 01009KT 04/M08 A3031 RMK A01 T00391075  RH  043%=      5-min Rain = 0
KCR1 200005Z 01009KT 04/M08 A303 RMK A01 T00381075  RH  043%=      5-min Rain = 0
KCR1 200006Z 01008KT 04/M08 A3031 RMK A01 T00371076  RH  043%=      5-min Rain = 0
KCR1 200007Z 01008KT 04/M08 A3031 RMK A01 T00381076  RH  043%=      5-min Rain = 0
KCR1 200008Z 01008KT 04/M08 A3031 RMK A01 T00371076  RH  044%=      5-min Rain = 0
KCR1 200009Z 01007KT 04/M08 A3031 RMK A01 T00361075  RH  044%=      5-min Rain = 0
KCR1 200010Z 01007KT 04/M08 A3031 RMK A01 T00361075  RH  044%=      5-min Rain = 0
KCR1 200011Z 01007KT 04/M07 A3031 RMK A01 T00351074  RH  044%=      5-min Rain = 0
KCR1 200012Z 01006KT 03/M08 A3031 RMK A01 T00341075  RH  045%=      5-min Rain = 0
KCR1 200013Z 01007KT 03/M07 A3031 RMK A01 T00341074  RH  045%=      5-min Rain = 0
KCR1 200014Z 01006KT 03/M08 A3031 RMK A01 T00341075  RH  045%=      5-min Rain = 0
KCR1 200015Z 01006KT 03/M08 A3031 RMK A01 T00341075  RH  045%=      5-min Rain = 0
KCR1 200016Z 00006KT 03/M07 A3031 RMK A01 T00331074  RH  045%=      5-min Rain = 0
KCR1 200017Z 00006KT 03/M07 A3031 RMK A01 T00321073  RH  046%=      5-min Rain = 0
KCR1 200018Z 01006KT 03/M07 A3031 RMK A01 T00311074  RH  046%=      5-min Rain = 0
KCR1 200019Z 01005KT 03/M07 A3031 RMK A01 T00311073  RH  046%=      5-min Rain = 0
KCR1 200020Z 01006KT 03/M07 A3031 RMK A01 T00301073  RH  046%=      5-min Rain = 0
KCR1 200021Z 01005KT 03/M07 A3031 RMK A01 T00301073  RH  047%=      5-min Rain = 0
KCR1 200022Z 01005KT 03/M07 A3031 RMK A01 T00281072  RH  047%=      5-min Rain = 0
KCR1 200023Z 01005KT 03/M07 A3031 RMK A01 T00271072  RH  048%=      5-min Rain = 0
KCR1 200024Z 01005KT 03/M07 A3031 RMK A01 T00261072  RH  048%=      5-min Rain = 0
KCR1 200025Z 02005KT 03/M07 A3031 RMK A01 T00251071  RH  049%=      5-min Rain = 0
KCR1 200026Z 02005KT 02/M07 A3031 RMK A01 T00241071  RH  049%=      5-min Rain = 0
KCR1 200027Z 02006KT 02/M07 A3031 RMK A01 T00231071  RH  050%=      5-min Rain = 0
KCR1 200028Z 02006KT 02/M07 A3031 RMK A01 T00231070  RH  050%=      5-min Rain = 0
KCR1 200029Z 02006KT 02/M07 A3031 RMK A01 T00221070  RH  051%=      5-min Rain = 0
KCR1 200030Z 03006KT 02/M07 A3031 RMK A01 T00211069  RH  051%=      5-min Rain = 0
KCR1 200031Z 03006KT 02/M07 A3031 RMK A01 T00201069  RH  051%=      5-min Rain = 0
KCR1 200032Z 03007KT 02/M07 A3031 RMK A01 T00201069  RH  051%=      5-min Rain = 0
KCR1 200033Z 03007KT 02/M07 A3031 RMK A01 T00201069  RH  052%=      5-min Rain = 0
KCR1 200034Z 03007KT 02/M07 A3031 RMK A01 T00211069  RH  051%=      5-min Rain = 0
KCR1 200035Z 02007KT 02/M07 A3031 RMK A01 T00211069  RH  051%=      5-min Rain = 0
KCR1 200036Z 02007KT 02/M07 A3031 RMK A01 T00211069  RH  051%=      5-min Rain = 0
KCR1 200037Z 02007KT 02/M07 A3031 RMK A01 T00211069  RH  051%=      5-min Rain = 0
KCR1 200038Z 02007KT 02/M07 A3031 RMK A01 T00211069  RH  051%=      5-min Rain = 0
KCR1 200039Z 02007KT 02/M07 A3031 RMK A01 T00201069  RH  052%=      5-min Rain = 0
KCR1 200040Z 02007KT 02/M07 A3031 RMK A01 T00201069  RH  052%=      5-min Rain = 0
KCR1 200041Z 02007KT 02/M07 A3031 RMK A01 T00201068  RH  052%=      5-min Rain = 0
KCR1 200042Z 02007KT 02/M07 A3031 RMK A01 T00191068  RH  052%=      5-min Rain = 0
KCR1 200043Z 02007KT 02/M07 A3031 RMK A01 T00181068  RH  053%=      5-min Rain = 0
KCR1 200044Z 02006KT 02/M07 A3031 RMK A01 T00181068  RH  053%=      5-min Rain = 0
KCR1 200045Z 02006KT 02/M07 A3031 RMK A01 T00171068  RH  053%=      5-min Rain = 0
KCR1 200046Z 02006KT 02/M07 A3031 RMK A01 T00161068  RH  053%=      5-min Rain = 0
KCR1 200047Z 02006KT 02/M07 A3031 RMK A01 T00161067  RH  054%=      5-min Rain = 0
KCR1 200048Z 02006KT 02/M07 A3031 RMK A01 T00151067  RH  054%=      5-min Rain = 0
KCR1 200049Z 02006KT 02/M07 A3031 RMK A01 T00151067  RH  054%=      5-min Rain = 0
KCR1 200050Z 02006KT 02/M07 A3031 RMK A01 T00151067  RH  055%=      5-min Rain = 0
KCR1 200051Z 02005KT 01/M07 A3032 RMK A01 T00141067  RH  055%=      5-min Rain = 0
KCR1 200052Z 02005KT 01/M07 A3031 RMK A01 T00141067  RH  055%=      5-min Rain = 0
KCR1 200053Z 03005KT 01/M07 A3031 RMK A01 T00131067  RH  055%=      5-min Rain = 0
KCR1 200054Z 03005KT 01/M07 A3031 RMK A01 T00131066  RH  055%=      5-min Rain = 0
KCR1 200055Z 03005KT 01/M07 A3031 RMK A01 T00121067  RH  056%=      5-min Rain = 0
KCR1 200056Z 03005KT 01/M07 A3031 RMK A01 T00121067  RH  056%=      5-min Rain = 0
KCR1 200057Z 03005KT 01/M07 A3031 RMK A01 T00121068  RH  056%=      5-min Rain = 0
KCR1 200058Z 03005KT 01/M07 A3031 RMK A01 T00121067  RH  056%=      5-min Rain = 0
KCR1 200059Z 03005KT 01/M07 A3031 RMK A01 T00111068  RH  055%=      5-min Rain = 0
KCR1 200100Z 03006KT 01/M07 A3031 RMK A01 T00111067  RH  056%=      5-min Rain = 0
KCR1 200101Z 03006KT 01/M07 A3031 RMK A01 T00101067  RH  056%=      5-min Rain = 0
KCR1 200102Z 03006KT 01/M07 A3031 RMK A01 T00101067  RH  057%=      5-min Rain = 0
KCR1 200103Z 03006KT 01/M07 A3031 RMK A01 T00091066  RH  057%=      5-min Rain = 0
KCR1 200104Z 03007KT 01/M07 A3031 RMK A01 T00081066  RH  057%=      5-min Rain = 0
KCR1 200105Z 03007KT 01/M07 A3032 RMK A01 T00081067  RH  057%=      5-min Rain = 0
KCR1 200106Z 03007KT 01/M07 A3032 RMK A01 T00081067  RH  057%=      5-min Rain = 0
KCR1 200107Z 03007KT 01/M07 A3032 RMK A01 T00081067  RH  057%=      5-min Rain = 0
KCR1 200108Z 03007KT 01/M07 A3032 RMK A01 T00081067  RH  057%=      5-min Rain = 0
KCR1 200109Z 03007KT 01/M07 A3032 RMK A01 T00091067  RH  057%=      5-min Rain = 0
KCR1 200110Z 03008KT 01/M07 A3032 RMK A01 T00091067  RH  057%=      5-min Rain = 0
KCR1 200111Z 03008KT 01/M07 A3032 RMK A01 T00091067  RH  057%=      5-min Rain = 0
KCR1 200112Z 02008KT 01/M07 A3032 RMK A01 T00091067  RH  057%=      5-min Rain = 0
KCR1 200113Z 02008KT 01/M07 A3032 RMK A01 T00101068  RH  056%=      5-min Rain = 0
KCR1 200114Z 02008KT 01/M07 A3032 RMK A01 T00101068  RH  056%=      5-min Rain = 0
KCR1 200115Z 02008KT 01/M07 A3032 RMK A01 T00111068  RH  056%=      5-min Rain = 0
KCR1 200116Z 02008KT 01/M07 A3032 RMK A01 T00111068  RH  055%=      5-min Rain = 0
KCR1 200117Z 02008KT 01/M07 A3032 RMK A01 T00111068  RH  055%=      5-min Rain = 0
KCR1 200118Z 02008KT 01/M07 A3032 RMK A01 T00111068  RH  055%=      5-min Rain = 0
KCR1 200119Z 02008KT 01/M07 A3032 RMK A01 T00111069  RH  055%=      5-min Rain = 0
KCR1 200120Z 02008KT 01/M07 A3032 RMK A01 T00111069  RH  055%=      5-min Rain = 0
KCR1 200121Z 02008KT 01/M07 A3032 RMK A01 T00121069  RH  055%=      5-min Rain = 0
KCR1 200122Z 02008KT 01/M07 A3032 RMK A01 T00121069  RH  055%=      5-min Rain = 0
KCR1 200123Z 01008KT 01/M07 A3032 RMK A01 T00121068  RH  055%=      5-min Rain = 0
KCR1 200124Z 01008KT 01/M07 A3032 RMK A01 T00111068  RH  055%=      5-min Rain = 0
KCR1 200125Z 01008KT 01/M07 A3032 RMK A01 T00111068  RH  056%=      5-min Rain = 0
KCR1 200126Z 01008KT 01/M07 A3032 RMK A01 T00101068  RH  056%=      5-min Rain = 0
KCR1 200127Z 01008KT 01/M07 A3032 RMK A01 T00111068  RH  056%=      5-min Rain = 0
KCR1 200128Z 01008KT 01/M07 A3032 RMK A01 T00111067  RH  056%=      5-min Rain = 0
KCR1 200129Z 01008KT 01/M07 A3032 RMK A01 T00111068  RH  056%=      5-min Rain = 0
KCR1 200130Z 01008KT 01/M07 A3032 RMK A01 T00111069  RH  055%=      5-min Rain = 0
KCR1 200131Z 01007KT 01/M07 A3032 RMK A01 T00111069  RH  055%=      5-min Rain = 0
KCR1 200132Z 01008KT 01/M07 A3032 RMK A01 T00111068  RH  056%=      5-min Rain = 0
KCR1 200133Z 01007KT 01/M07 A3032 RMK A01 T00111069  RH  055%=      5-min Rain = 0
KCR1 200134Z 01007KT 01/M07 A3032 RMK A01 T00111069  RH  055%=      5-min Rain = 0
KCR1 200135Z 01007KT 01/M07 A3032 RMK A01 T00111069  RH  055%=      5-min Rain = 0
KCR1 200136Z 01007KT 01/M07 A3032 RMK A01 T00111069  RH  055%=      5-min Rain = 0
KCR1 200137Z 01007KT 01/M07 A3032 RMK A01 T00111069  RH  055%=      5-min Rain = 0
KCR1 200138Z 01006KT 01/M07 A3033 RMK A01 T00111068  RH  055%=      5-min Rain = 0
KCR1 200139Z 01006KT 01/M07 A3033 RMK A01 T00111068  RH  055%=      5-min Rain = 0
KCR1 200140Z 01006KT 01/M07 A3033 RMK A01 T00111068  RH  056%=      5-min Rain = 0
KCR1 200141Z 01006KT 01/M07 A3033 RMK A01 T00111069  RH  056%=      5-min Rain = 0
KCR1 200142Z 01006KT 01/M07 A3033 RMK A01 T00101069  RH  055%=      5-min Rain = 0
KCR1 200143Z 02005KT 01/M07 A3033 RMK A01 T00101069  RH  056%=      5-min Rain = 0
KCR1 200144Z 02005KT 01/M07 A3033 RMK A01 T00101068  RH  056%=      5-min Rain = 0
KCR1 200145Z 03005KT 01/M07 A3033 RMK A01 T00091068  RH  056%=      5-min Rain = 0
KCR1 200146Z 03005KT 01/M07 A3033 RMK A01 T00081068  RH  057%=      5-min Rain = 0
KCR1 200147Z 04004KT 01/M07 A3033 RMK A01 T00081068  RH  057%=      5-min Rain = 0
KCR1 200148Z 04003KT 01/M07 A3033 RMK A01 T00071067  RH  058%=      5-min Rain = 0
KCR1 200149Z 04003KT 01/M07 A3033 RMK A01 T00071067  RH  058%=      5-min Rain = 0
KCR1 200150Z 04003KT 01/M07 A3033 RMK A01 T00061067  RH  058%=      5-min Rain = 0
KCR1 200151Z 04003KT 01/M07 A3033 RMK A01 T00061067  RH  058%=      5-min Rain = 0
KCR1 200152Z 05003KT 01/M07 A3033 RMK A01 T00061067  RH  058%=      5-min Rain = 0
KCR1 200153Z 05003KT 01/M07 A3033 RMK A01 T00051067  RH  058%=      5-min Rain = 0
KCR1 200154Z 05003KT 01/M07 A3033 RMK A01 T00051068  RH  058%=      5-min Rain = 0
KCR1 200155Z 05003KT 00/M07 A3033 RMK A01 T00041069  RH  058%=      5-min Rain = 0
KCR1 200156Z 05003KT 00/M07 A3033 RMK A01 T00041069  RH  058%=      5-min Rain = 0
KCR1 200157Z 05003KT 00/M07 A3033 RMK A01 T00041070  RH  058%=      5-min Rain = 0
KCR1 200158Z 05003KT 01/M07 A3033 RMK A01 T00051069  RH  057%=      5-min Rain = 0
KCR1 200159Z 05003KT 01/M07 A3033 RMK A01 T00051070  RH  057%=      5-min Rain = 0
KCR1 200200Z 04003KT 01/M07 A3033 RMK A01 T00051070  RH  057%=      5-min Rain = 0
KCR1 200201Z 04003KT 01/M07 A3033 RMK A01 T00051070  RH  057%=      5-min Rain = 0
KCR1 200202Z 03003KT 01/M07 A3032 RMK A01 T00051071  RH  057%=      5-min Rain = 0
KCR1 200203Z 03003KT 01/M07 A3032 RMK A01 T00051071  RH  057%=      5-min Rain = 0
KCR1 200204Z 03003KT 01/M07 A3032 RMK A01 T00051071  RH  057%=      5-min Rain = 0
KCR1 200205Z 03003KT 01/M07 A3032 RMK A01 T00051071  RH  057%=      5-min Rain = 0
KCR1 200206Z 03004KT 01/M07 A3032 RMK A01 T00051071  RH  057%=      5-min Rain = 0
KCR1 200207Z 03004KT 01/M07 A3032 RMK A01 T00051071  RH  057%=      5-min Rain = 0
KCR1 200208Z 03004KT 01/M07 A3032 RMK A01 T00051070  RH  057%=      5-min Rain = 0
KCR1 200209Z 03004KT 01/M07 A3032 RMK A01 T00051069  RH  057%=      5-min Rain = 0
KCR1 200210Z 03004KT 01/M07 A3032 RMK A01 T00051069  RH  058%=      5-min Rain = 0
KCR1 200211Z 03005KT 00/M07 A3032 RMK A01 T00041068  RH  058%=      5-min Rain = 0
KCR1 200212Z 03004KT 00/M07 A3032 RMK A01 T00041068  RH  058%=      5-min Rain = 0
KCR1 200213Z 03004KT 00/M07 A3032 RMK A01 T00031068  RH  059%=      5-min Rain = 0
KCR1 200214Z 03005KT 00/M07 A3032 RMK A01 T00031068  RH  059%=      5-min Rain = 0
KCR1 200215Z 03005KT 00/M07 A3032 RMK A01 T00021068  RH  059%=      5-min Rain = 0
KCR1 200216Z 02005KT 00/M07 A3032 RMK A01 T00021068  RH  059%=      5-min Rain = 0
KCR1 200217Z 02005KT 00/M07 A3032 RMK A01 T00021068  RH  059%=      5-min Rain = 0
KCR1 200218Z 02005KT 00/M07 A3032 RMK A01 T00011069  RH  059%=      5-min Rain = 0
KCR1 200219Z 03005KT 00/M07 A3032 RMK A01 T00011069  RH  059%=      5-min Rain = 0
KCR1 200220Z 02005KT 00/M07 A3032 RMK A01 T00011069  RH  060%=      5-min Rain = 0
KCR1 200221Z 03006KT 00/07 A3032 RMK A01 T00-00-69  RH  060%=      5-min Rain = 0
KCR1 200222Z 03006KT M00/M07 A3032 RMK A01 T10011069  RH  060%=      5-min Rain = 0
KCR1 200223Z 03006KT M00/M07 A3032 RMK A01 T10011069  RH  060%=      5-min Rain = 0
KCR1 200224Z 03006KT M00/M07 A3032 RMK A01 T10021068  RH  061%=      5-min Rain = 0
KCR1 200225Z 03006KT M00/M07 A3032 RMK A01 T10021068  RH  061%=      5-min Rain = 0
KCR1 200226Z 03007KT M00/M07 A3032 RMK A01 T10031067  RH  062%=      5-min Rain = 0
KCR1 200227Z 03007KT M00/M07 A3032 RMK A01 T10031066  RH  062%=      5-min Rain = 0
KCR1 200228Z 03007KT M00/M07 A3032 RMK A01 T10031066  RH  063%=      5-min Rain = 0
KCR1 200229Z 03007KT M00/M07 A3032 RMK A01 T10031066  RH  063%=      5-min Rain = 0
KCR1 200230Z 03006KT M00/M07 A3032 RMK A01 T10031066  RH  062%=      5-min Rain = 0
KCR1 200231Z 03006KT M00/M07 A3032 RMK A01 T10031066  RH  062%=      5-min Rain = 0
KCR1 200232Z 02006KT M00/M07 A3032 RMK A01 T10041067  RH  062%=      5-min Rain = 0
KCR1 200233Z 02005KT M00/M07 A3032 RMK A01 T10041067  RH  062%=      5-min Rain = 0
KCR1 200234Z 02005KT M00/M07 A3031 RMK A01 T10041068  RH  062%=      5-min Rain = 0
KCR1 200235Z 03005KT M00/M07 A3031 RMK A01 T10031067  RH  062%=      5-min Rain = 0
KCR1 200236Z 03004KT M00/M07 A3031 RMK A01 T10031067  RH  062%=      5-min Rain = 0
KCR1 200237Z 03004KT M00/M07 A3031 RMK A01 T10041068  RH  062%=      5-min Rain = 0
KCR1 200238Z 03004KT M00/M07 A3031 RMK A01 T10041068  RH  062%=      5-min Rain = 0
KCR1 200239Z 04004KT M01/M07 A3031 RMK A01 T10051068  RH  062%=      5-min Rain = 0
KCR1 200240Z 04003KT M01/M07 A3031 RMK A01 T10051068  RH  062%=      5-min Rain = 0
KCR1 200241Z 03003KT M01/M07 A3031 RMK A01 T10051069  RH  062%=      5-min Rain = 0
KCR1 200242Z 03003KT M01/M07 A3032 RMK A01 T10051069  RH  062%=      5-min Rain = 0
KCR1 200243Z 03002KT M01/M07 A3032 RMK A01 T10051068  RH  062%=      5-min Rain = 0
KCR1 200244Z 03002KT M01/M07 A3032 RMK A01 T10051069  RH  062%=      5-min Rain = 0
KCR1 200245Z 02002KT M01/M07 A3032 RMK A01 T10051069  RH  062%=      5-min Rain = 0
KCR1 200246Z 02002KT M01/M07 A3032 RMK A01 T10051070  RH  062%=      5-min Rain = 0
KCR1 200247Z 02002KT M00/M07 A3032 RMK A01 T10041069  RH  061%=      5-min Rain = 0
KCR1 200248Z 02003KT M00/M07 A3032 RMK A01 T10041070  RH  061%=      5-min Rain = 0
KCR1 200249Z 03003KT M00/M07 A3032 RMK A01 T10041069  RH  062%=      5-min Rain = 0
KCR1 200250Z 03004KT M00/M07 A3032 RMK A01 T10041068  RH  062%=      5-min Rain = 0
KCR1 200251Z 03004KT M00/M07 A3032 RMK A01 T10041068  RH  062%=      5-min Rain = 0
KCR1 200252Z 03004KT M01/M07 A3032 RMK A01 T10051068  RH  062%=      5-min Rain = 0
KCR1 200253Z 03005KT M01/M07 A3032 RMK A01 T10061067  RH  063%=      5-min Rain = 0
KCR1 200254Z 03005KT M01/M07 A3032 RMK A01 T10061068  RH  063%=      5-min Rain = 0
KCR1 200255Z 03005KT M01/M07 A3032 RMK A01 T10061067  RH  063%=      5-min Rain = 0
KCR1 200256Z 03005KT M01/M07 A3032 RMK A01 T10061068  RH  063%=      5-min Rain = 0
KCR1 200257Z 03004KT M01/M07 A3032 RMK A01 T10061067  RH  064%=      5-min Rain = 0
KCR1 200258Z 02004KT M01/M07 A3032 RMK A01 T10061066  RH  064%=      5-min Rain = 0
KCR1 200259Z 02004KT M01/M07 A3032 RMK A01 T10061066  RH  064%=      5-min Rain = 0
KCR1 200300Z 01004KT M01/M07 A3032 RMK A01 T10071067  RH  064%=      5-min Rain = 0
KCR1 200301Z 01004KT M01/M07 A3032 RMK A01 T10071067  RH  064%=      5-min Rain = 0
KCR1 200302Z 01004KT M01/M07 A3032 RMK A01 T10071067  RH  064%=      5-min Rain = 0
KCR1 200303Z 01004KT M01/M07 A3032 RMK A01 T10071067  RH  064%=      5-min Rain = 0
KCR1 200304Z 01004KT M01/M07 A3032 RMK A01 T10071066  RH  064%=      5-min Rain = 0
KCR1 200305Z 01004KT M01/M07 A3032 RMK A01 T10071067  RH  064%=      5-min Rain = 0
KCR1 200306Z 02004KT M01/M07 A3032 RMK A01 T10071067  RH  064%=      5-min Rain = 0
KCR1 200307Z 01004KT M01/M07 A3033 RMK A01 T10071067  RH  064%=      5-min Rain = 0
KCR1 200308Z 01004KT M01/M07 A3033 RMK A01 T10061067  RH  063%=      5-min Rain = 0
KCR1 200309Z 01004KT M01/M07 A3033 RMK A01 T10061067  RH  063%=      5-min Rain = 0
KCR1 200310Z 01004KT M01/M07 A3033 RMK A01 T10061067  RH  063%=      5-min Rain = 0
KCR1 200311Z 00004KT M01/M07 A3034 RMK A01 T10061068  RH  063%=      5-min Rain = 0
KCR1 200312Z 00004KT M01/M07 A3034 RMK A01 T10061068  RH  063%=      5-min Rain = 0
KCR1 200313Z 35004KT M01/M07 A3034 RMK A01 T10061068  RH  062%=      5-min Rain = 0
KCR1 200314Z 35004KT M01/M07 A3034 RMK A01 T10061068  RH  063%=      5-min Rain = 0
KCR1 200315Z 35004KT M01/M07 A3034 RMK A01 T10061068  RH  063%=      5-min Rain = 0
KCR1 200316Z 35005KT M01/M07 A3034 RMK A01 T10061067  RH  063%=      5-min Rain = 0
KCR1 200317Z 35005KT M01/M07 A3034 RMK A01 T10071067  RH  063%=      5-min Rain = 0
KCR1 200318Z 35006KT M01/M07 A3034 RMK A01 T10071067  RH  064%=      5-min Rain = 0
KCR1 200319Z 36006KT M01/M07 A3034 RMK A01 T10071067  RH  064%=      5-min Rain = 0
KCR1 200320Z 00006KT M01/M07 A3034 RMK A01 T10071067  RH  064%=      5-min Rain = 0
KCR1 200321Z 00007KT M01/M07 A3034 RMK A01 T10061067  RH  063%=      5-min Rain = 0
KCR1 200322Z 00007KT M01/M07 A3034 RMK A01 T10061067  RH  064%=      5-min Rain = 0
KCR1 200323Z 36007KT M01/M07 A3034 RMK A01 T10061067  RH  063%=      5-min Rain = 0
KCR1 200324Z 36007KT M01/M07 A3034 RMK A01 T10051067  RH  063%=      5-min Rain = 0
KCR1 200325Z 35007KT M01/M07 A3034 RMK A01 T10051067  RH  063%=      5-min Rain = 0
KCR1 200326Z 35007KT M01/M07 A3034 RMK A01 T10051067  RH  063%=      5-min Rain = 0
KCR1 200327Z 35006KT M01/M07 A3034 RMK A01 T10051067  RH  063%=      5-min Rain = 0
KCR1 200328Z 34006KT M01/M07 A3035 RMK A01 T10051067  RH  063%=      5-min Rain = 0
KCR1 200329Z 34006KT M01/M07 A3035 RMK A01 T10051067  RH  063%=      5-min Rain = 0
KCR1 200330Z 34006KT M01/M07 A3035 RMK A01 T10061067  RH  063%=      5-min Rain = 0
KCR1 200331Z 34005KT M01/M07 A3034 RMK A01 T10061068  RH  063%=      5-min Rain = 0
KCR1 200332Z 35005KT M01/M07 A3034 RMK A01 T10061069  RH  063%=      5-min Rain = 0
KCR1 200333Z 35005KT M01/M07 A3034 RMK A01 T10061069  RH  062%=      5-min Rain = 0
KCR1 200334Z 35005KT M01/M07 A3034 RMK A01 T10061069  RH  062%=      5-min Rain = 0
KCR1 200335Z 35005KT M01/M07 A3034 RMK A01 T10061070  RH  062%=      5-min Rain = 0
KCR1 200336Z 35005KT M01/M07 A3034 RMK A01 T10051070  RH  062%=      5-min Rain = 0
KCR1 200337Z 35005KT M01/M07 A3035 RMK A01 T10051071  RH  061%=      5-min Rain = 0
KCR1 200338Z 35004KT M01/M07 A3035 RMK A01 T10051070  RH  061%=      5-min Rain = 0
KCR1 200339Z 34005KT M01/M07 A3035 RMK A01 T10051070  RH  061%=      5-min Rain = 0
KCR1 200340Z 34005KT M01/M07 A3035 RMK A01 T10051069  RH  062%=      5-min Rain = 0
KCR1 200341Z 34005KT M01/M07 A3035 RMK A01 T10051070  RH  061%=      5-min Rain = 0
KCR1 200342Z 35005KT M01/M07 A3035 RMK A01 T10051071  RH  061%=      5-min Rain = 0
KCR1 200343Z 35005KT M00/M07 A3035 RMK A01 T10041071  RH  061%=      5-min Rain = 0
KCR1 200344Z 36005KT M00/M07 A3035 RMK A01 T10031071  RH  060%=      5-min Rain = 0
KCR1 200345Z 00006KT M00/M07 A3035 RMK A01 T10031070  RH  060%=      5-min Rain = 0
KCR1 200346Z 00006KT M00/M07 A3035 RMK A01 T10031069  RH  061%=      5-min Rain = 0
KCR1 200347Z 00006KT M00/M07 A3035 RMK A01 T10031068  RH  062%=      5-min Rain = 0
KCR1 200348Z 01007KT M00/M07 A3035 RMK A01 T10041068  RH  062%=      5-min Rain = 0
KCR1 200349Z 01007KT M00/M07 A3035 RMK A01 T10041068  RH  062%=      5-min Rain = 0
KCR1 200350Z 01007KT M00/M07 A3035 RMK A01 T10041068  RH  062%=      5-min Rain = 0
KCR1 200351Z 01007KT M01/M07 A3035 RMK A01 T10051068  RH  062%=      5-min Rain = 0
KCR1 200352Z 01007KT M00/M07 A3035 RMK A01 T10041067  RH  062%=      5-min Rain = 0
KCR1 200353Z 01007KT M00/M07 A3035 RMK A01 T10041068  RH  062%=      5-min Rain = 0
KCR1 200354Z 01007KT M00/M07 A3035 RMK A01 T10041068  RH  062%=      5-min Rain = 0
KCR1 200355Z 01007KT M01/M07 A3035 RMK A01 T10051068  RH  062%=      5-min Rain = 0
KCR1 200356Z 01007KT M00/M07 A3036 RMK A01 T10041069  RH  062%=      5-min Rain = 0
KCR1 200357Z 01007KT M00/M07 A3036 RMK A01 T10041069  RH  061%=      5-min Rain = 0
KCR1 200358Z 01006KT M00/M07 A3035 RMK A01 T10041070  RH  061%=      5-min Rain = 0
KCR1 200359Z 00006KT M00/M07 A3035 RMK A01 T10041069  RH  061%=      5-min Rain = 0
KCR1 200400Z 01006KT M00/M07 A3035 RMK A01 T10041069  RH  061%=      5-min Rain = 0
KCR1 200401Z 01005KT M00/M07 A3036 RMK A01 T10031069  RH  061%=      5-min Rain = 0
KCR1 200402Z 01006KT M00/M07 A3036 RMK A01 T10031069  RH  061%=      5-min Rain = 0
KCR1 200403Z 01005KT M00/M07 A3036 RMK A01 T10041069  RH  061%=      5-min Rain = 0
KCR1 200404Z 00004KT M00/M07 A3036 RMK A01 T10041068  RH  062%=      5-min Rain = 0
KCR1 200405Z 00004KT M00/M07 A3036 RMK A01 T10041069  RH  062%=      5-min Rain = 0
KCR1 200406Z 00004KT M01/M07 A3036 RMK A01 T10051069  RH  062%=      5-min Rain = 0
KCR1 200407Z 01004KT M01/M07 A3036 RMK A01 T10051069  RH  062%=      5-min Rain = 0
KCR1 200408Z 01004KT M01/M07 A3036 RMK A01 T10061070  RH  062%=      5-min Rain = 0
KCR1 200409Z 01004KT M01/M07 A3036 RMK A01 T10061069  RH  062%=      5-min Rain = 0
KCR1 200410Z 01004KT M01/M07 A3036 RMK A01 T10061069  RH  063%=      5-min Rain = 0
KCR1 200411Z 01004KT M01/M07 A3036 RMK A01 T10071069  RH  063%=      5-min Rain = 0
KCR1 200412Z 01004KT M01/M07 A3036 RMK A01 T10071068  RH  063%=      5-min Rain = 0
KCR1 200413Z 01005KT M01/M07 A3035 RMK A01 T10071068  RH  063%=      5-min Rain = 0
KCR1 200414Z 01005KT M01/M07 A3035 RMK A01 T10071068  RH  063%=      5-min Rain = 0
KCR1 200415Z 01005KT M01/M07 A3036 RMK A01 T10081068  RH  063%=      5-min Rain = 0
KCR1 200416Z 01005KT M01/M07 A3036 RMK A01 T10081067  RH  064%=      5-min Rain = 0
KCR1 200417Z 01005KT M01/M07 A3035 RMK A01 T10081067  RH  065%=      5-min Rain = 0
KCR1 200418Z 01005KT M01/M07 A3035 RMK A01 T10091066  RH  065%=      5-min Rain = 0
KCR1 200419Z 01005KT M01/M07 A3035 RMK A01 T10091066  RH  065%=      5-min Rain = 0
KCR1 200420Z 01005KT M01/M07 A3035 RMK A01 T10091066  RH  065%=      5-min Rain = 0
KCR1 200421Z 00005KT M01/M07 A3035 RMK A01 T10091067  RH  065%=      5-min Rain = 0
KCR1 200422Z 00004KT M01/M07 A3035 RMK A01 T10101067  RH  065%=      5-min Rain = 0
KCR1 200423Z 00004KT M01/M07 A3035 RMK A01 T10101067  RH  065%=      5-min Rain = 0
KCR1 200424Z 00004KT M01/M07 A3035 RMK A01 T10101068  RH  065%=      5-min Rain = 0
KCR1 200425Z 01004KT M01/M07 A3035 RMK A01 T10101068  RH  065%=      5-min Rain = 0
KCR1 200426Z 02004KT M01/M07 A3036 RMK A01 T10101068  RH  065%=      5-min Rain = 0
KCR1 200427Z 02004KT M01/M07 A3036 RMK A01 T10101068  RH  065%=      5-min Rain = 0
KCR1 200428Z 03005KT M01/M07 A3035 RMK A01 T10101068  RH  065%=      5-min Rain = 0
KCR1 200429Z 03004KT M01/M07 A3035 RMK A01 T10101068  RH  065%=      5-min Rain = 0
KCR1 200430Z 03004KT M01/M07 A3035 RMK A01 T10101067  RH  066%=      5-min Rain = 0
KCR1 200431Z 02004KT M01/M07 A3035 RMK A01 T10111067  RH  066%=      5-min Rain = 0
KCR1 200432Z 02004KT M01/M07 A3035 RMK A01 T10111066  RH  066%=      5-min Rain = 0
KCR1 200433Z 02004KT M01/M07 A3035 RMK A01 T10121067  RH  066%=      5-min Rain = 0
KCR1 200434Z 02004KT M01/M07 A3035 RMK A01 T10121066  RH  066%=      5-min Rain = 0
KCR1 200435Z 02005KT M01/M07 A3035 RMK A01 T10121066  RH  067%=      5-min Rain = 0
KCR1 200436Z 02005KT M01/M07 A3035 RMK A01 T10121066  RH  067%=      5-min Rain = 0
KCR1 200437Z 01005KT M01/M07 A3035 RMK A01 T10121066  RH  067%=      5-min Rain = 0
KCR1 200438Z 01005KT M01/M07 A3035 RMK A01 T10121066  RH  067%=      5-min Rain = 0
KCR1 200439Z 01005KT M01/M07 A3035 RMK A01 T10121066  RH  066%=      5-min Rain = 0
KCR1 200440Z 02005KT M01/M07 A3035 RMK A01 T10111067  RH  066%=      5-min Rain = 0
KCR1 200441Z 02005KT M01/M07 A3035 RMK A01 T10111066  RH  066%=      5-min Rain = 0
KCR1 200442Z 02005KT M01/M07 A3035 RMK A01 T10111066  RH  066%=      5-min Rain = 0
KCR1 200443Z 02005KT M01/M07 A3035 RMK A01 T10111066  RH  066%=      5-min Rain = 0
KCR1 200444Z 02004KT M01/M07 A3035 RMK A01 T10111065  RH  067%=      5-min Rain = 0
KCR1 200445Z 03004KT M01/M07 A3035 RMK A01 T10121066  RH  067%=      5-min Rain = 0
KCR1 200446Z 03004KT M01/M07 A3034 RMK A01 T10121066  RH  067%=      5-min Rain = 0
KCR1 200447Z 04004KT M01/M07 A3035 RMK A01 T10131066  RH  067%=      5-min Rain = 0
KCR1 200448Z 03004KT M01/M07 A3035 RMK A01 T10131065  RH  067%=      5-min Rain = 0
KCR1 200449Z 04004KT M01/M06 A3035 RMK A01 T10131064  RH  068%=      5-min Rain = 0
KCR1 200450Z 04004KT M01/M06 A3035 RMK A01 T10131064  RH  068%=      5-min Rain = 0
KCR1 200451Z 05004KT M01/M06 A3035 RMK A01 T10131064  RH  068%=      5-min Rain = 0
KCR1 200452Z 06004KT M01/M06 A3035 RMK A01 T10131064  RH  068%=      5-min Rain = 0
KCR1 200453Z 06004KT M01/M06 A3035 RMK A01 T10131064  RH  068%=      5-min Rain = 0
KCR1 200454Z 06004KT M01/M06 A3035 RMK A01 T10141064  RH  069%=      5-min Rain = 0
KCR1 200455Z 06004KT M02/M06 A3035 RMK A01 T10151064  RH  069%=      5-min Rain = 0
KCR1 200456Z 07003KT M02/M06 A3035 RMK A01 T10151064  RH  069%=      5-min Rain = 0
KCR1 200457Z 08003KT M02/M06 A3035 RMK A01 T10151064  RH  069%=      5-min Rain = 0
KCR1 200458Z 07003KT M02/M07 A3035 RMK A01 T10161065  RH  069%=      5-min Rain = 0
KCR1 200459Z 07003KT M02/M07 A3035 RMK A01 T10161066  RH  069%=      5-min Rain = 0
KCR1 200500Z 06003KT M02/M07 A3035 RMK A01 T10161066  RH  068%=      5-min Rain = 0
KCR1 200501Z 06003KT M02/M07 A3035 RMK A01 T10161067  RH  068%=      5-min Rain = 0
KCR1 200502Z 06004KT M02/M07 A3035 RMK A01 T10161067  RH  068%=      5-min Rain = 0
KCR1 200503Z 05004KT M02/M07 A3035 RMK A01 T10161068  RH  068%=      5-min Rain = 0
KCR1 200504Z 06004KT M02/M07 A3035 RMK A01 T10161066  RH  068%=      5-min Rain = 0
KCR1 200505Z 06004KT M02/M07 A3035 RMK A01 T10161065  RH  070%=      5-min Rain = 0
KCR1 200506Z 06005KT M02/M06 A3035 RMK A01 T10171064  RH  070%=      5-min Rain = 0
KCR1 200507Z 07005KT M02/M06 A3035 RMK A01 T10181064  RH  071%=      5-min Rain = 0
KCR1 200508Z 07005KT M02/M06 A3035 RMK A01 T10191064  RH  072%=      5-min Rain = 0
KCR1 200509Z 07005KT M02/M06 A3035 RMK A01 T10201064  RH  072%=      5-min Rain = 0
KCR1 200510Z 07005KT M02/M06 A3035 RMK A01 T10201064  RH  072%=      5-min Rain = 0
KCR1 200511Z 08005KT M02/M07 A3035 RMK A01 T10211065  RH  072%=      5-min Rain = 0
KCR1 200512Z 08005KT M02/M07 A3035 RMK A01 T10211065  RH  072%=      5-min Rain = 0
KCR1 200513Z 08005KT M02/M07 A3035 RMK A01 T10211066  RH  071%=      5-min Rain = 0
KCR1 200514Z 08005KT M02/M07 A3035 RMK A01 T10211067  RH  071%=      5-min Rain = 0
KCR1 200515Z 08005KT M02/M07 A3035 RMK A01 T10211067  RH  070%=      5-min Rain = 0
KCR1 200516Z 09006KT M02/M07 A3035 RMK A01 T10201067  RH  070%=      5-min Rain = 0
KCR1 200517Z 09006KT M02/M07 A3035 RMK A01 T10201067  RH  070%=      5-min Rain = 0
KCR1 200518Z 09006KT M02/M07 A3035 RMK A01 T10211067  RH  071%=      5-min Rain = 0
KCR1 200519Z 09006KT M02/M07 A3035 RMK A01 T10221067  RH  071%=      5-min Rain = 0
KCR1 200520Z 09006KT M02/M07 A3035 RMK A01 T10221067  RH  071%=      5-min Rain = 0
KCR1 200521Z 09006KT M02/M07 A3035 RMK A01 T10221067  RH  071%=      5-min Rain = 0
KCR1 200522Z 08006KT M02/M07 A3035 RMK A01 T10221067  RH  071%=      5-min Rain = 0
KCR1 200523Z 08007KT M02/M07 A3035 RMK A01 T10211067  RH  071%=      5-min Rain = 0
KCR1 200524Z 08007KT M02/M07 A3035 RMK A01 T10201066  RH  071%=      5-min Rain = 0
KCR1 200525Z 08008KT M02/M07 A3035 RMK A01 T10201066  RH  071%=      5-min Rain = 0
KCR1 200526Z 08008KT M02/M07 A3035 RMK A01 T10201066  RH  071%=      5-min Rain = 0
KCR1 200527Z 08009KT M02/M07 A3035 RMK A01 T10201065  RH  071%=      5-min Rain = 0
KCR1 200528Z 08009KT M02/M07 A3035 RMK A01 T10201065  RH  071%=      5-min Rain = 0
KCR1 200529Z 08009KT M02/M07 A3035 RMK A01 T10201065  RH  071%=      5-min Rain = 0
KCR1 200530Z 08009KT M02/M07 A3035 RMK A01 T10211066  RH  071%=      5-min Rain = 0
KCR1 200531Z 08009KT M02/M07 A3035 RMK A01 T10211066  RH  072%=      5-min Rain = 0
KCR1 200532Z 08008KT M02/M07 A3035 RMK A01 T10221066  RH  072%=      5-min Rain = 0
KCR1 200533Z 09008KT M02/M07 A3035 RMK A01 T10221065  RH  072%=      5-min Rain = 0
KCR1 200534Z 09008KT M02/M07 A3035 RMK A01 T10221066  RH  072%=      5-min Rain = 0
KCR1 200535Z 09008KT M02/M07 A3035 RMK A01 T10211066  RH  071%=      5-min Rain = 0
KCR1 200536Z 09008KT M02/M07 A3036 RMK A01 T10201066  RH  070%=      5-min Rain = 0
KCR1 200537Z 09008KT M02/M07 A3036 RMK A01 T10191067  RH  070%=      5-min Rain = 0
KCR1 200538Z 08009KT M02/M07 A3036 RMK A01 T10191067  RH  069%=      5-min Rain = 0
KCR1 200539Z 08009KT M02/M07 A3036 RMK A01 T10181067  RH  069%=      5-min Rain = 0
KCR1 200540Z 08009KT M02/M07 A3036 RMK A01 T10181067  RH  069%=      5-min Rain = 0
KCR1 200541Z 08010KT M02/M07 A3036 RMK A01 T10181068  RH  069%=      5-min Rain = 0
KCR1 200542Z 08009KT M02/M07 A3036 RMK A01 T10181068  RH  069%=      5-min Rain = 0
KCR1 200543Z 08010KT M02/M07 A3036 RMK A01 T10181067  RH  069%=      5-min Rain = 0
KCR1 200544Z 08010KT M02/M07 A3036 RMK A01 T10191067  RH  070%=      5-min Rain = 0
KCR1 200545Z 07011KT M02/M07 A3036 RMK A01 T10191067  RH  070%=      5-min Rain = 0
KCR1 200546Z 07010KT M02/M07 A3036 RMK A01 T10191066  RH  070%=      5-min Rain = 0
KCR1 200547Z 07010KT M02/M07 A3036 RMK A01 T10201066  RH  070%=      5-min Rain = 0
KCR1 200548Z 07010KT M02/M07 A3036 RMK A01 T10191067  RH  070%=      5-min Rain = 0
KCR1 200549Z 07009KT M02/M07 A3036 RMK A01 T10191067  RH  070%=      5-min Rain = 0
KCR1 200550Z 07009KT M02/M07 A3035 RMK A01 T10191066  RH  070%=      5-min Rain = 0
KCR1 200551Z 07010KT M02/M07 A3035 RMK A01 T10191066  RH  070%=      5-min Rain = 0
KCR1 200552Z 07010KT M02/M07 A3035 RMK A01 T10191066  RH  070%=      5-min Rain = 0
KCR1 200553Z 07010KT M02/M07 A3035 RMK A01 T10191066  RH  070%=      5-min Rain = 0
KCR1 200554Z 07009KT M02/M07 A3035 RMK A01 T10191067  RH  070%=      5-min Rain = 0
KCR1 200555Z 07010KT M02/M07 A3035 RMK A01 T10191067  RH  070%=      5-min Rain = 0
KCR1 200556Z 07009KT M02/M07 A3035 RMK A01 T10191067  RH  070%=      5-min Rain = 0
KCR1 200557Z 07009KT M02/M07 A3035 RMK A01 T10191067  RH  070%=      5-min Rain = 0
KCR1 200558Z 07009KT M02/M07 A3035 RMK A01 T10191067  RH  070%=      5-min Rain = 0
KCR1 200559Z 07009KT M02/M07 A3035 RMK A01 T10191067  RH  070%=      5-min Rain = 0

Page generated in 0.1218 seconds.